Flight Track Log - Related Links

Times and Time Zones

All times are in EDT time to prevent confusion due to time zone crossing. See the AFL150 flight status page for this flight to view local times or setup timezone preferences in your user account.

Time Position Orientation Groundspeed Altitude Reporting Facility
EDT Latitude Longitude Course Direction KTS MPH feet Rate Location/Type
Sun 06:12:53 55.9660 37.3760 255° West 168 193 1,700  Level FlightAware ADS-B
Sun 06:13:18 55.9610 37.3430 255° West 164 189 2,700 2,000 Climbing FlightAware ADS-B
Sun 06:13:38 55.9570 37.3160 255° West 166 191 3,200 1,650 Climbing FlightAware ADS-B
Sun 06:13:58 55.9530 37.2900 255° West 166 191 3,800 1,543 Climbing FlightAware ADS-B
Sun 06:14:13 55.9500 37.2690 256° West 175 201 4,100 1,000 Climbing FlightAware ADS-B
Sun 06:14:28 55.9470 37.2480 256° West 191 220 4,300 800 Climbing FlightAware ADS-B
Sun 06:14:43 55.9440 37.2230 258° West 209 241 4,500 960 Climbing FlightAware ADS-B
Sun 06:14:53 55.9440 37.2070 270° West 217 250 4,700 1,200 Climbing FlightAware ADS-B
Sun 06:15:13 55.9490 37.1670 283° West 242 278 5,100 1,600 Climbing FlightAware ADS-B
Sun 06:15:23 55.9520 37.1490 287° West 246 283 5,500 2,400 Climbing FlightAware ADS-B
Sun 06:15:43 55.9620 37.1140 297° West 250 288 6,300 2,400 Climbing FlightAware ADS-B
Sun 06:16:03 55.9730 37.0730 296° West 258 297 7,100 2,571 Climbing FlightAware ADS-B
Sun 06:16:18 55.9800 37.0450 294° West 259 298 7,800 2,571 Climbing FlightAware ADS-B
Sun 06:16:38 55.9900 37.0070 295° West 261 300 8,600 2,550 Climbing FlightAware ADS-B
Sun 06:16:58 56.0000 36.9690 295° West 262 302 9,500 2,618 Climbing FlightAware ADS-B
Sun 06:17:33 56.0190 36.8980 296° West 268 308 11,000 2,400 Climbing FlightAware ADS-B
Sun 06:18:08 56.0380 36.8280 296° West 277 319 12,300 1,886 Climbing FlightAware ADS-B
Sun 06:18:43 56.0580 36.7530 296° West 298 343 13,200 1,200 Climbing FlightAware ADS-B
Sun 06:19:18 56.0790 36.6720 295° West 331 381 13,700 1,286 Climbing FlightAware ADS-B
Sun 06:19:53 56.1030 36.5810 295° West 348 400 14,700 1,886 Climbing FlightAware ADS-B
Sun 06:20:28 56.1270 36.4900 295° West 356 410 15,900 1,971 Climbing FlightAware ADS-B
Sun 06:21:03 56.1520 36.3930 295° West 367 422 17,000 1,629 Climbing FlightAware ADS-B
Sun 06:21:38 56.1780 36.2930 295° West 385 443 17,800 1,543 Climbing FlightAware ADS-B
Sun 06:22:13 56.2040 36.1920 295° West 394 453 18,800 1,800 Climbing FlightAware ADS-B
Sun 06:22:48 56.2310 36.0850 294° West 401 461 19,900 1,714 Climbing FlightAware ADS-B
Sun 06:23:23 56.2580 35.9810 295° West 409 471 20,800 1,629 Climbing FlightAware ADS-B
Sun 06:23:58 56.2860 35.8690 294° West 415 478 21,800 1,629 Climbing FlightAware ADS-B
Sun 06:24:33 56.3140 35.7600 295° West 422 486 22,700 1,457 Climbing FlightAware ADS-B
Sun 06:25:08 56.3420 35.6470 294° West 429 494 23,500 1,371 Climbing FlightAware ADS-B
Sun 06:25:43 56.3700 35.5340 294° West 434 499 24,300 1,371 Climbing FlightAware ADS-B
Sun 06:26:18 56.4010 35.4180 296° West 440 506 25,100 1,371 Climbing FlightAware ADS-B
Sun 06:26:53 56.4390 35.3100 303° West 443 510 25,900 1,286 Climbing FlightAware ADS-B
Sun 06:27:28 56.4890 35.2140 313° West 447 514 26,600 1,120 Climbing FlightAware ADS-B
Sun 06:28:08 56.5560 35.1280 325° Northwest 452 520 27,300 1,026 Climbing FlightAware ADS-B
Sun 06:28:44 56.6160 35.0500 324° Northwest 457 526 27,900 1,120 Climbing FlightAware ADS-B
Sun 06:29:23 56.6830 34.9590 323° Northwest 459 528 28,700 1,216 Climbing FlightAware ADS-B
Sun 06:29:58 56.7410 34.8810 324° Northwest 460 529 29,400 1,200 Climbing FlightAware ADS-B
Sun 06:30:28 56.7940 34.8100 324° Northwest 460 529 30,000 1,200 Climbing FlightAware ADS-B
Sun 06:31:03 56.8520 34.7310 323° Northwest 458 527 30,700 1,360 Climbing FlightAware ADS-B
Sun 06:31:43 56.9210 34.6390 324° Northwest 452 520 31,700 1,114 Climbing FlightAware ADS-B
Sun 06:32:13 56.9720 34.5690 323° Northwest 457 526 32,000 738 Climbing FlightAware ADS-B
Sun 06:32:48 57.0310 34.4890 324° Northwest 457 526 32,500 880 Climbing FlightAware ADS-B
Sun 06:33:28 57.0980 34.3960 323° Northwest 457 526 33,100 771 Climbing FlightAware ADS-B
Sun 06:33:58 57.1490 34.3260 323° Northwest 461 531 33,400 646 Climbing FlightAware ADS-B
Sun 06:34:33 57.2080 34.2440 323° Northwest 464 534 33,800 480 Climbing FlightAware ADS-B
Sun 06:35:13 57.2770 34.1480 323° Northwest 461 531 34,000 160 Climbing FlightAware ADS-B
Sun 06:35:48 57.3340 34.0690 323° Northwest 457 526 34,000  Level FlightAware ADS-B
Sun 06:36:18 57.3860 33.9960 323° Northwest 458 527 34,000  Level FlightAware ADS-B
Sun 06:36:53 57.4480 33.9100 323° Northwest 459 528 34,000  Level FlightAware ADS-B
Sun 06:37:33 57.5120 33.8180 322° Northwest 459 528 34,000  Level FlightAware ADS-B
Sun 06:38:08 57.5710 33.7340 323° Northwest 457 526 34,000  Level FlightAware ADS-B
Sun 06:38:38 57.6220 33.6620 323° Northwest 455 524 34,000  Level FlightAware ADS-B
Sun 06:39:13 57.6810 33.5770 322° Northwest 455 524 34,000  Level FlightAware ADS-B
Sun 06:39:53 57.7460 33.4850 323° Northwest 454 522 34,000  Level FlightAware ADS-B
Sun 06:40:28 57.8080 33.4010 324° Northwest 452 520 34,000  Level FlightAware ADS-B
Sun 06:40:58 57.8560 33.3390 326° Northwest 452 520 34,000  Level FlightAware ADS-B
Sun 06:41:33 57.9180 33.2570 325° Northwest 453 521 34,000  Level FlightAware ADS-B
Sun 06:42:15 57.9800 33.1730 324° Northwest 454 522 34,000  Level FlightAware ADS-B
Sun 06:42:43 58.0300 33.1080 325° Northwest 453 521 34,000  Level FlightAware ADS-B
Sun 06:43:23 58.0930 33.0220 324° Northwest 450 518 34,000  Level FlightAware ADS-B
Sun 06:43:59 58.1450 32.9510 324° Northwest 450 518 34,000  Level FlightAware ADS-B
Sun 06:44:35 58.1960 32.8800 324° Northwest 450 518 34,000  Level FlightAware ADS-B
Sun 06:45:12 58.2490 32.8070 324° Northwest 450 518 34,000  Level FlightAware ADS-B
Sun 06:45:48 58.3010 32.7350 324° Northwest 450 518 34,000  Level FlightAware ADS-B
Sun 06:46:24 58.3520 32.6640 324° Northwest 450 518 34,000  Level FlightAware ADS-B
Sun 06:47:00 58.4040 32.5930 324° Northwest 450 518 34,000  Level FlightAware ADS-B
Sun 06:47:36 58.4550 32.5210 324° Northwest 450 518 34,000  Level FlightAware ADS-B
Sun 06:48:12 58.5070 32.4490 324° Northwest 450 518 34,000  Level FlightAware ADS-B
Sun 06:48:50 58.6530 32.2530 325° Northwest 453 521 34,000  Level FlightAware ADS-B
Sun 06:49:35 58.7320 32.1420 324° Northwest 451 519 34,000  Level FlightAware ADS-B
Sun 06:50:05 58.7760 32.0790 323° Northwest 449 517 34,000  Level FlightAware ADS-B
Sun 06:50:40 58.8400 31.9880 324° Northwest 448 516 34,000  Level FlightAware ADS-B
Sun 06:51:20 58.9050 31.8950 324° Northwest 446 513 34,000  Level FlightAware ADS-B
Sun 06:51:50 58.9560 31.8220 324° Northwest 446 513 34,000  Level FlightAware ADS-B
Sun 06:52:30 59.0200 31.7300 324° Northwest 446 513 34,000  Level FlightAware ADS-B
Sun 06:53:00 59.0660 31.6630 323° Northwest 446 513 34,000  Level FlightAware ADS-B
Sun 06:53:40 59.1370 31.5600 323° Northwest 447 514 34,000  Level FlightAware ADS-B
Sun 06:54:10 59.1870 31.4880 324° Northwest 446 513 34,000  Level FlightAware ADS-B
Sun 06:54:45 59.2450 31.4020 323° Northwest 446 513 34,000  Level FlightAware ADS-B
Sun 06:55:21 59.3020 31.3180 323° Northwest 444 511 34,000  Level FlightAware ADS-B
Sun 06:56:00 59.3670 31.2220 323° Northwest 443 510 34,000  Level FlightAware ADS-B
Sun 06:56:35 59.4230 31.1400 323° Northwest 442 509 34,000  Level FlightAware ADS-B
Sun 06:57:16 59.4930 31.0350 323° Northwest 443 510 34,000  Level FlightAware ADS-B
Sun 06:57:47 59.5380 30.9680 323° Northwest 443 510 34,000  Level FlightAware ADS-B
Sun 06:58:28 59.6090 30.8610 323° Northwest 445 512 34,000  Level FlightAware ADS-B
Sun 06:59:00 59.6560 30.7760 318° Northwest 447 514 34,000  Level FlightAware ADS-B
Sun 06:59:15 59.6760 30.7210 306° West 450 518 34,000  Level FlightAware ADS-B
Sun 06:59:35 59.6910 30.6520 293° West 454 522 34,000  Level FlightAware ADS-B
Sun 06:59:56 59.6990 30.5640 280° West 460 529 34,000  Level FlightAware ADS-B
Sun 07:00:33 59.6930 30.4110 266° West 463 533 34,000  Level FlightAware ADS-B
Sun 07:01:03 59.6870 30.2890 264° West 466 536 34,000  Level FlightAware ADS-B
Sun 07:01:38 59.6800 30.1320 265° West 466 536 34,000  Level FlightAware ADS-B
Sun 07:02:14 59.6740 29.9900 265° West 466 536 34,000  Level FlightAware ADS-B
Sun 07:02:54 59.6660 29.8090 265° West 466 536 34,000  Level FlightAware ADS-B
Sun 07:03:29 59.6590 29.6770 264° West 463 533 34,000  Level FlightAware ADS-B
Sun 07:04:04 59.6520 29.5170 265° West 462 532 34,000  Level FlightAware ADS-B
Sun 07:04:44 59.6430 29.3470 264° West 462 532 34,000  Level FlightAware ADS-B
Sun 07:05:21 59.6360 29.1980 265° West 464 534 34,000  Level FlightAware ADS-B
Sun 07:05:52 59.6290 29.0630 264° West 465 535 34,000  Level FlightAware ADS-B
Sun 07:06:29 59.6220 28.9050 265° West 463 533 34,000  Level FlightAware ADS-B
Sun 07:07:05 59.6260 28.7560 273° West 458 527 34,000  Level FlightAware ADS-B
Sun 07:07:40 59.6380 28.6090 279° West 453 521 34,000  Level FlightAware ADS-B
Sun 07:08:12 59.6550 28.4860 285° West 451 519 34,000  Level FlightAware ADS-B
Sun 07:08:49 59.6760 28.3390 286° West 452 520 34,000  Level FlightAware ADS-B
Sun 07:09:26 59.6970 28.1930 286° West 452 520 34,000  Level FlightAware ADS-B
Sun 07:09:57 59.7150 28.0690 286° West 453 521 34,000  Level FlightAware ADS-B
Sun 07:10:34 59.7350 27.9240 285° West 453 521 34,000  Level FlightAware ADS-B
Sun 07:11:10 59.7560 27.7770 286° West 453 521 34,000 364 Level FlightAware ADS-B
Sun 07:11:40 59.7730 27.6540 285° West 450 518 34,400 627 Climbing FlightAware ADS-B
Sun 07:12:17 59.7930 27.5080 285° West 455 524 34,700 568 Climbing FlightAware ADS-B
Sun 07:12:54 59.8130 27.3580 285° West 456 525 35,100 730 Climbing FlightAware ADS-B
Sun 07:13:31 59.8330 27.2130 285° West 455 524 35,600 783 Climbing FlightAware ADS-B
Sun 07:14:03 59.8510 27.0810 285° West 456 525 36,000 358 Climbing FlightAware ADS-B
Sun 07:14:38 59.8690 26.9430 285° West 459 528 36,000  Level FlightAware ADS-B
Sun 07:15:14 59.8890 26.7910 285° West 458 527 36,000  Level FlightAware ADS-B
Sun 07:15:47 59.9060 26.6580 284° West 459 528 36,000  Level FlightAware ADS-B
Sun 07:16:23 59.9240 26.5150 284° West 460 529 36,000  Level FlightAware ADS-B
Sun 07:16:59 59.9460 26.3690 287° West 455 524 36,000  Level FlightAware ADS-B
Sun 07:17:34 59.9750 26.2330 293° West 449 517 36,000  Level FlightAware ADS-B
Sun 07:18:11 60.0130 26.1050 301° West 444 511 36,000  Level FlightAware ADS-B
Sun 07:18:43 60.0520 26.0000 307° West 438 504 36,000  Level FlightAware ADS-B
Sun 07:19:18 60.1020 25.8960 314° West 432 497 36,000  Level FlightAware ADS-B
Sun 07:19:55 60.1580 25.8040 321° Northwest 427 491 36,000  Level FlightAware ADS-B
Sun 07:20:26 60.2040 25.7180 317° Northwest 432 497 36,000  Level FlightAware ADS-B
Sun 07:21:04 60.2520 25.6020 310° West 436 502 36,000  Level FlightAware ADS-B
Sun 07:21:41 60.2920 25.4720 302° West 442 509 36,000  Level FlightAware ADS-B
Sun 07:22:13 60.3190 25.3570 295° West 448 516 36,000  Level FlightAware ADS-B
Sun 07:22:48 60.3420 25.2170 288° West 454 522 36,000  Level FlightAware ADS-B
Sun 07:23:26 60.3600 25.0730 284° West 455 524 36,000  Level FlightAware ADS-B
Sun 07:24:02 60.3790 24.9130 284° West 456 525 36,000  Level FlightAware ADS-B
Sun 07:24:34 60.3960 24.7780 284° West 457 526 36,000  Level FlightAware ADS-B
Sun 07:25:11 60.4140 24.6260 284° West 457 526 36,000  Level FlightAware ADS-B
Sun 07:25:46 60.4320 24.4790 284° West 458 527 36,000  Level FlightAware ADS-B
Sun 07:26:18 60.4480 24.3470 284° West 457 526 36,000  Level FlightAware ADS-B
Sun 07:26:53 60.4710 24.2070 288° West 451 519 36,000  Level FlightAware ADS-B
Sun 07:27:31 60.5060 24.0640 296° West 444 511 36,000  Level FlightAware ADS-B
Sun 07:28:02 60.5360 23.9510 298° West 442 509 36,000  Level FlightAware ADS-B
Sun 07:28:39 60.5710 23.8240 299° West 442 509 36,000  Level FlightAware ADS-B
Sun 07:29:13 60.6050 23.6930 298° West 443 510 36,000  Level FlightAware ADS-B
Sun 07:29:50 60.6410 23.5560 298° West 444 511 36,000  Level FlightAware ADS-B
Sun 07:30:27 60.6770 23.4170 298° West 445 512 36,000  Level FlightAware ADS-B
Sun 07:30:59 60.7070 23.2990 297° West 444 511 36,000  Level FlightAware ADS-B
Sun 07:31:36 60.7420 23.1640 298° West 443 510 36,000  Level FlightAware ADS-B
Sun 07:32:09 60.7730 23.0410 297° West 442 509 36,000  Level FlightAware ADS-B
Sun 07:32:46 60.8070 22.9060 297° West 442 509 36,000  Level FlightAware ADS-B
Sun 07:33:20 60.8400 22.7750 297° West 441 507 36,000  Level FlightAware ADS-B
Sun 07:33:53 60.8700 22.6560 297° West 442 509 36,000  Level FlightAware ADS-B
Sun 07:34:29 60.9040 22.5190 297° West 443 510 36,000  Level FlightAware ADS-B
Sun 07:35:06 60.9370 22.3820 296° West 442 509 36,000  Level FlightAware ADS-B
Sun 07:35:39 60.9670 22.2570 296° West 442 509 36,000  Level FlightAware ADS-B
Sun 07:36:16 60.9990 22.1210 296° West 442 509 36,000  Level FlightAware ADS-B
Sun 07:36:48 61.0290 21.9970 297° West 443 510 36,000  Level FlightAware ADS-B
Sun 07:37:23 61.0600 21.8640 296° West 445 512 36,000  Level FlightAware ADS-B
Sun 07:37:57 61.0900 21.7330 295° West 445 512 36,000  Level FlightAware ADS-B
Sun 07:38:19 61.1090 21.6532 296° West 446 513 36,000  Level FlightAware ADS-B
Sun 07:38:49 61.1365 21.5342 296° West 447 514 36,000  Level FlightAware ADS-B
Sun 07:39:46 61.1870 21.3160 296° West 446 513 36,000  Level FlightAware ADS-B
Sun 07:40:18 61.2150 21.1930 295° West 446 513 36,000  Level FlightAware ADS-B
Sun 07:40:55 61.2470 21.0510 295° West 445 512 36,000  Level FlightAware ADS-B
Sun 07:41:31 61.2770 20.9160 295° West 444 511 36,000  Level FlightAware ADS-B
Sun 07:42:06 61.3090 20.7730 295° West 443 510 36,000  Level FlightAware ADS-B
Sun 07:42:39 61.3370 20.6470 295° West 443 510 36,000  Level FlightAware ADS-B
Sun 07:43:14 61.3660 20.5120 294° West 443 510 36,000  Level FlightAware ADS-B
Sun 07:43:51 61.3970 20.3730 295° West 441 507 36,000  Level FlightAware ADS-B
Sun 07:44:23 61.4240 20.2480 294° West 442 509 36,000  Level FlightAware ADS-B
Sun 07:45:00 61.4560 20.1010 295° West 443 510 36,000  Level FlightAware ADS-B
Sun 07:45:32 61.4820 19.9780 294° West 444 511 36,000  Level FlightAware ADS-B
Sun 07:46:09 61.5140 19.8290 294° West 444 511 36,000  Level FlightAware ADS-B
Sun 07:46:44 61.5430 19.6940 294° West 444 511 36,000  Level FlightAware ADS-B
Sun 07:47:28 61.5760 19.5360 294° West 443 510 36,000  Level FlightAware ADS-B
Sun 07:48:01 61.6030 19.4040 293° West 443 510 36,000  Level FlightAware ADS-B
Sun 07:48:36 61.6340 19.2560 294° West 438 504 36,000  Level FlightAware ADS-B
Sun 07:49:13 61.6620 19.1220 294° West 434 499 36,000  Level FlightAware ADS-B
Sun 07:49:43 61.6860 19.0020 293° West 435 501 36,000  Level FlightAware ADS-B
Sun 07:50:20 61.7140 18.8650 293° West 435 501 36,000  Level FlightAware ADS-B
Sun 07:50:56 61.7430 18.7210 293° West 435 501 36,000  Level FlightAware ADS-B
Sun 07:51:31 61.7700 18.5870 293° West 436 502 36,000  Level FlightAware ADS-B
Sun 07:52:07 61.7990 18.4410 293° West 437 503 36,000  Level FlightAware ADS-B
Sun 07:52:44 61.8290 18.2900 293° West 436 502 36,000  Level FlightAware ADS-B
Sun 07:53:16 61.8540 18.1620 293° West 436 502 36,000  Level FlightAware ADS-B
Sun 07:53:46 61.8780 18.0430 293° West 434 499 36,000  Level FlightAware ADS-B
Sun 07:54:32 61.9110 17.8710 292° West 434 499 36,000  Level FlightAware ADS-B
Sun 07:55:10 61.9410 17.7160 292° West 432 497 36,000  Level FlightAware ADS-B
Sun 07:55:44 61.9670 17.5800 292° West 433 498 36,000  Level FlightAware ADS-B
Sun 07:56:20 61.9930 17.4410 292° West 435 501 36,000  Level FlightAware ADS-B
Sun 07:56:56 62.0200 17.2960 292° West 435 501 36,000  Level FlightAware ADS-B
Sun 07:57:27 62.0420 17.1780 292° West 436 502 36,000  Level FlightAware ADS-B
Sun 07:58:05 62.0710 17.0230 292° West 437 503 36,000  Level FlightAware ADS-B
Sun 07:58:41 62.0970 16.8820 292° West 437 503 36,000  Level FlightAware ADS-B
Sun 07:59:13 62.1210 16.7500 291° West 436 502 36,000  Level FlightAware ADS-B
Sun 07:59:49 62.1470 16.6050 291° West 436 502 36,000  Level FlightAware ADS-B
Sun 08:00:23 62.1720 16.4700 292° West 435 501 36,000  Level FlightAware ADS-B
Sun 08:01:01 62.1980 16.3220 291° West 434 499 36,000  Level FlightAware ADS-B
Sun 08:01:33 62.2220 16.1900 291° West 434 499 36,000  Level FlightAware ADS-B
Sun 08:02:08 62.2470 16.0460 291° West 434 499 36,000  Level FlightAware ADS-B
Sun 08:02:44 62.2720 15.9070 291° West 436 502 36,000  Level FlightAware ADS-B
Sun 08:03:20 62.2970 15.7600 290° West 438 504 36,000  Level FlightAware ADS-B
Sun 08:03:54 62.3210 15.6220 291° West 439 505 36,000  Level FlightAware ADS-B
Sun 08:04:28 62.3450 15.4820 290° West 438 504 36,000  Level FlightAware ADS-B
Sun 08:05:04 62.3700 15.3370 290° West 439 505 36,000  Level FlightAware ADS-B
Sun 08:05:40 62.3950 15.1870 290° West 441 507 36,000  Level FlightAware ADS-B
Sun 08:06:12 62.4170 15.0510 289° West 441 507 36,000  Level FlightAware ADS-B
Sun 08:06:48 62.4420 14.9050 290° West 442 509 36,000  Level FlightAware ADS-B
Sun 08:07:24 62.4670 14.7520 290° West 443 510 36,000  Level FlightAware ADS-B
Sun 08:07:56 62.4880 14.6250 290° West 443 510 36,000  Level FlightAware ADS-B
Sun 08:08:33 62.5130 14.4710 289° West 441 507 36,000  Level FlightAware ADS-B
Sun 08:09:08 62.5370 14.3230 289° West 440 506 36,000  Level FlightAware ADS-B
Sun 08:09:44 62.5610 14.1710 289° West 439 505 36,000  Level FlightAware ADS-B
Sun 08:10:20 62.5840 14.0260 289° West 439 505 36,000  Level FlightAware ADS-B
Sun 08:10:52 62.6050 13.8910 289° West 439 505 36,000  Level FlightAware ADS-B
Sun 08:11:28 62.6230 13.7730 288° West 438 504 36,000  Level FlightAware ADS-B
Sun 08:12:04 62.6510 13.5900 288° West 438 504 36,000  Level FlightAware ADS-B
Sun 08:12:40 62.6740 13.4420 289° West 438 504 36,000  Level FlightAware ADS-B
Sun 08:13:12 62.6950 13.3060 289° West 437 503 36,000  Level FlightAware ADS-B
Sun 08:13:48 62.7170 13.1550 288° West 437 503 36,000  Level FlightAware ADS-B
Sun 08:14:22 62.7380 13.0150 288° West 437 503 36,000  Level FlightAware ADS-B
Sun 08:14:58 62.7610 12.8630 288° West 437 503 36,000  Level FlightAware ADS-B
Sun 08:15:31 62.7810 12.7260 288° West 436 502 36,000  Level FlightAware ADS-B
Sun 08:16:08 62.8020 12.5810 288° West 437 503 36,000  Level FlightAware ADS-B
Sun 08:16:44 62.8250 12.4230 288° West 438 504 36,000  Level FlightAware ADS-B
Sun 08:17:19 62.8470 12.2700 288° West 438 504 36,000  Level FlightAware ADS-B
Sun 08:17:56 62.8680 12.1200 287° West 438 504 36,000  Level FlightAware ADS-B
Sun 08:18:28 62.8870 11.9820 287° West 437 503 36,000  Level FlightAware ADS-B
Sun 08:19:04 62.9090 11.8300 288° West 436 502 36,000  Level FlightAware ADS-B
Sun 08:19:40 62.9300 11.6780 287° West 435 501 36,000  Level FlightAware ADS-B
Sun 08:20:12 62.9480 11.5400 286° West 435 501 36,000  Level FlightAware ADS-B
Sun 08:20:49 62.9700 11.3840 287° West 434 499 36,000  Level FlightAware ADS-B
Sun 08:21:26 62.9900 11.2310 286° West 432 497 36,000  Level FlightAware ADS-B
Sun 08:21:58 63.0080 11.0970 287° West 432 497 36,000  Level FlightAware ADS-B
Sun 08:22:34 63.0280 10.9430 286° West 432 497 36,000  Level FlightAware ADS-B
Sun 08:23:06 63.0450 10.8120 286° West 433 498 36,000  Level FlightAware ADS-B
Sun 08:23:42 63.0660 10.6560 287° West 434 499 36,000  Level FlightAware ADS-B
Sun 08:24:18 63.0850 10.5060 286° West 435 501 36,000  Level FlightAware ADS-B
Sun 08:24:55 63.1050 10.3440 285° West 435 501 36,000  Level FlightAware ADS-B
Sun 08:25:30 63.1230 10.2010 286° West 435 501 36,000  Level FlightAware ADS-B
Sun 08:26:02 63.1410 10.0610 286° West 435 501 36,000  Level FlightAware ADS-B
Sun 08:26:39 63.1600 9.9030 285° West 434 499 36,000  Level FlightAware ADS-B
Sun 08:27:15 63.1790 9.7470 285° West 433 498 36,000  Level FlightAware ADS-B
Sun 08:27:51 63.1980 9.5910 285° West 433 498 36,000  Level FlightAware ADS-B
Sun 08:28:22 63.2140 9.4640 286° West 433 498 36,000  Level FlightAware ADS-B
Sun 08:28:59 63.2330 9.3000 284° West 434 499 36,000  Level FlightAware ADS-B
Sun 08:29:35 63.2510 9.1490 285° West 434 499 36,000  Level FlightAware ADS-B
Sun 08:30:06 63.2660 9.0160 284° West 435 501 36,000  Level FlightAware ADS-B
Sun 08:30:36 63.2810 8.8830 284° West 436 502 36,000  Level FlightAware ADS-B
Sun 08:31:15 63.3000 8.7170 284° West 438 504 36,000  Level FlightAware ADS-B
Sun 08:31:46 63.3160 8.5810 285° West 438 504 36,000  Level FlightAware ADS-B
Sun 08:32:22 63.3330 8.4230 284° West 437 503 36,000  Level FlightAware ADS-B
Sun 08:32:59 63.3510 8.2590 284° West 436 502 36,000  Level FlightAware ADS-B
Sun 08:33:34 63.3670 8.1140 284° West 436 502 36,000  Level FlightAware ADS-B
Sun 08:34:06 63.3830 7.9700 284° West 437 503 36,000  Level FlightAware ADS-B
Sun 08:34:37 63.3970 7.8370 283° West 436 502 36,000  Level FlightAware ADS-B
Sun 08:35:11 63.4120 7.6940 283° West 436 502 36,000  Level FlightAware ADS-B
Sun 08:35:46 63.4290 7.5330 283° West 437 503 36,000  Level FlightAware ADS-B
Sun 08:36:23 63.4450 7.3730 283° West 436 502 36,000  Level FlightAware ADS-B
Sun 08:36:58 63.4610 7.2190 283° West 436 502 36,000  Level FlightAware ADS-B
Sun 08:37:31 63.4750 7.0800 283° West 436 502 36,000  Level FlightAware ADS-B
Sun 08:38:07 63.4910 6.9170 282° West 436 502 36,000  Level FlightAware ADS-B
Sun 08:38:42 63.5070 6.7640 283° West 435 501 36,000  Level FlightAware ADS-B
Sun 08:39:19 63.5230 6.5990 282° West 434 499 36,000  Level FlightAware ADS-B
Sun 08:39:58 63.5390 6.4320 282° West 433 498 36,000  Level FlightAware ADS-B
Sun 08:40:35 63.5530 6.2770 282° West 434 499 36,000  Level FlightAware ADS-B
Sun 08:41:08 63.5670 6.1270 282° West 435 501 36,000  Level FlightAware ADS-B
Sun 08:41:42 63.5820 5.9710 282° West 437 503 36,000  Level FlightAware ADS-B
Sun 08:42:19 63.5970 5.8080 282° West 438 504 36,000  Level FlightAware ADS-B
Sun 08:42:56 63.6120 5.6420 282° West 438 504 36,000  Level FlightAware ADS-B
Sun 08:43:28 63.6250 5.4960 281° West 438 504 36,000  Level FlightAware ADS-B
Sun 08:44:03 63.6380 5.3520 282° West 436 502 36,000  Level FlightAware ADS-B
Sun 08:44:40 63.6530 5.1790 281° West 435 501 36,000  Level FlightAware ADS-B
Sun 08:45:12 63.6650 5.0370 281° West 435 501 36,000  Level FlightAware ADS-B
Sun 08:45:47 63.6780 4.8830 281° West 434 499 36,000  Level FlightAware ADS-B
Sun 08:46:24 63.6910 4.7230 280° West 433 498 36,000  Level FlightAware ADS-B
Sun 08:46:59 63.7040 4.5700 281° West 433 498 36,000  Level FlightAware ADS-B
Sun 08:47:31 63.7150 4.4230 280° West 434 499 36,000  Level FlightAware ADS-B
Sun 08:48:08 63.7280 4.2630 280° West 434 499 36,000  Level FlightAware ADS-B
Sun 08:48:44 63.7410 4.1020 280° West 435 501 36,000  Level FlightAware ADS-B
Sun 08:49:15 63.7510 3.9690 280° West 435 501 36,000  Level FlightAware ADS-B
Sun 08:49:47 63.7620 3.8340 281° West 435 501 36,000  Level FlightAware ADS-B
Sun 08:50:29 63.7770 3.6310 280° West 434 499 36,000  Level FlightAware ADS-B
Sun 08:51:05 63.7890 3.4680 280° West 433 498 36,000  Level FlightAware ADS-B
Sun 08:51:37 63.7990 3.3330 280° West 429 494 36,000  Level FlightAware ADS-B
Sun 08:52:13 63.8110 3.1680 279° West 428 493 36,000  Level FlightAware ADS-B
Sun 08:52:51 63.8220 3.0040 279° West 427 491 36,000  Level FlightAware ADS-B
Sun 08:53:25 63.8330 2.8510 279° West 427 491 36,000  Level FlightAware ADS-B
Sun 08:54:01 63.8440 2.6930 279° West 430 495 36,000  Level FlightAware ADS-B
Sun 08:54:34 63.8530 2.5460 278° West 428 493 36,000  Level FlightAware ADS-B
Sun 08:55:05 63.8630 2.4080 279° West 428 493 36,000  Level FlightAware ADS-B
Sun 08:55:41 63.8730 2.2510 278° West 427 491 36,000  Level FlightAware ADS-B
Sun 08:56:18 63.8830 2.0960 278° West 427 491 36,000  Level FlightAware ADS-B
Sun 08:57:03 63.8960 1.8850 278° West 427 491 36,000  Level FlightAware ADS-B
Sun 08:57:43 63.9070 1.7130 278° West 426 490 36,000  Level FlightAware ADS-B
Sun 08:58:15 63.9150 1.5670 277° West 427 491 36,000  Level FlightAware ADS-B
Sun 08:58:53 63.9250 1.4050 278° West 428 493 36,000  Level FlightAware ADS-B
Sun 08:59:36 63.9340 1.2370 277° West 428 493 36,000  Level FlightAware ADS-B
Sun 09:00:10 63.9450 1.0600 278° West 427 491 36,000  Level FlightAware ADS-B
Sun 09:01:01 63.9560 0.8570 277° West 427 491 36,000  Level FlightAware ADS-B
Sun 09:01:37 63.9630 0.7200 277° West 427 491 36,000  Level FlightAware ADS-B
Sun 09:02:14 63.9710 0.5790 277° West 427 491 36,000  Level FlightAware ADS-B
Sun 09:02:51 63.9780 0.4390 277° West 427 491 36,000  Level FlightAware ADS-B
Sun 09:03:37 63.9920 0.1630 277° West 428 493 36,000  Level FlightAware ADS-B
Sun 09:04:16 64.0020 -0.0410 276° West 429 494 36,000  Level FlightAware ADS-B
Sun 09:04:46 64.0070 -0.1680 275° West 428 493 36,000  Level FlightAware ADS-B
Sun 09:05:26 64.0120 -0.3530 274° West 426 490 36,000  Level FlightAware ADS-B
Sun 09:06:00 64.0170 -0.5010 274° West 424 488 36,000  Level FlightAware ADS-B
Sun 09:06:36 64.0220 -0.6650 274° West 421 484 36,000  Level FlightAware ADS-B
Sun 09:07:12 64.0260 -0.8180 273° West 418 481 36,000  Level FlightAware ADS-B
Sun 09:07:44 64.0300 -0.9540 274° West 417 480 36,000  Level FlightAware ADS-B
Sun 09:08:21 64.0340 -1.1170 273° West 415 478 36,000  Level FlightAware ADS-B
Sun 09:09:14 64.0400 -1.3310 274° West 414 476 36,000  Level FlightAware ADS-B
Sun 09:10:10 64.0460 -1.5750 273° West 413 475 36,000  Level FlightAware ADS-B
Sun 09:10:40 64.0490 -1.7280 273° West 414 476 36,000  Level FlightAware ADS-B
Sun 09:11:31 64.0540 -1.9160 274° West 416 479 36,000  Level FlightAware ADS-B
Sun 09:12:03 64.0570 -2.0870 272° West 417 480 36,000  Level FlightAware ADS-B
Sun 09:12:39 64.0600 -2.2490 272° West 418 481 36,000  Level FlightAware ADS-B
Sun 09:13:17 64.0630 -2.4100 273° West 416 479 36,000  Level FlightAware ADS-B
Sun 09:13:49 64.0660 -2.5540 273° West 415 478 36,000  Level FlightAware ADS-B
Sun 09:14:21 64.0680 -2.6940 272° West 414 476 36,000  Level FlightAware ADS-B
Sun 09:15:15 64.0710 -2.9050 272° West 413 475 36,000  Level FlightAware ADS-B
Sun 09:15:52 64.0720 -3.0420 271° West 413 475 36,000  Level FlightAware ADS-B
Sun 09:16:21 64.0750 -3.2110 272° West 411 473 36,000  Level FlightAware ADS-B
Sun 09:17:01 64.0770 -3.3890 272° West 411 473 36,000  Level FlightAware ADS-B
Sun 09:17:33 64.0790 -3.5260 272° West 412 474 36,000  Level FlightAware ADS-B
Sun 09:18:08 64.0800 -3.6790 271° West 412 474 36,000  Level FlightAware ADS-B
Sun 09:18:45 64.0820 -3.8420 272° West 411 473 36,000  Level FlightAware ADS-B
Sun 09:19:18 64.0830 -3.9770 271° West 410 472 36,000  Level FlightAware ADS-B
Sun 09:19:52 64.0840 -4.1290 271° West 408 470 36,000  Level FlightAware ADS-B
Sun 09:20:30 64.0840 -4.2860 270° West 406 467 36,000  Level FlightAware ADS-B
Sun 09:21:06 64.0850 -4.4450 271° West 405 466 36,000  Level FlightAware ADS-B
Sun 09:21:42 64.0860 -4.5980 271° West 404 465 36,000  Level FlightAware ADS-B
Sun 09:22:14 64.0860 -4.7300 270° West 404 465 36,000  Level FlightAware ADS-B
Sun 09:22:48 64.0860 -4.8770 270° West 404 465 36,000  Level FlightAware ADS-B
Sun 09:23:40 64.0860 -5.0960 270° West 403 464 36,000  Level FlightAware ADS-B
Sun 09:24:16 64.0860 -5.2550 270° West 403 464 36,000  Level FlightAware ADS-B
Sun 09:24:48 64.0860 -5.3870 270° West 403 464 36,000  Level FlightAware ADS-B
Sun 09:25:26 64.0850 -5.5410 269° West 404 465 36,000  Level FlightAware ADS-B
Sun 09:25:58 64.0850 -5.6840 270° West 404 465 36,000  Level FlightAware ADS-B
Sun 09:26:34 64.0840 -5.8370 269° West 404 465 36,000  Level FlightAware ADS-B
Sun 09:27:10 64.0830 -5.9930 269° West 404 465 36,000  Level FlightAware ADS-B
Sun 09:27:43 64.0820 -6.1320 269° West 403 464 36,000  Level FlightAware ADS-B
Sun 09:28:18 64.0810 -6.2820 269° West 403 464 36,000  Level FlightAware ADS-B
Sun 09:28:54 64.0790 -6.4270 268° West 403 464 36,000  Level FlightAware ADS-B
Sun 09:29:30 64.0780 -6.5860 269° West 402 463 36,000  Level FlightAware ADS-B
Sun 09:30:02 64.0760 -6.7150 268° West 402 463 36,000  Level FlightAware ADS-B
Sun 09:30:38 64.0740 -6.8730 268° West 402 463 36,000  Level FlightAware ADS-B
Sun 09:31:14 64.0720 -7.0190 268° West 401 461 36,000  Level FlightAware ADS-B
Sun 09:31:50 64.0700 -7.1730 268° West 399 459 36,000  Level FlightAware ADS-B
Sun 09:32:22 64.0680 -7.3120 268° West 398 458 36,000  Level FlightAware ADS-B
Sun 09:32:58 64.0650 -7.4570 267° West 398 458 36,000  Level FlightAware ADS-B
Sun 09:33:52 64.0610 -7.6670 268° West 399 459 36,000  Level FlightAware ADS-B
Sun 09:34:28 64.0580 -7.7960 267° West 399 459 36,000  Level FlightAware ADS-B
Sun 09:34:58 64.0560 -7.9580 268° West 398 458 36,000  Level FlightAware ADS-B
Sun 09:35:40 64.0530 -8.1110 268° West 398 458 36,000  Level FlightAware ADS-B
Sun 09:36:16 64.0500 -8.2400 267° West 398 458 36,000  Level FlightAware ADS-B
Sun 09:36:52 64.0470 -8.3680 267° West 398 458 36,000  Level FlightAware ADS-B
Sun 09:37:30 64.0440 -8.5040 267° West 398 458 36,000  Level FlightAware ADS-B
Sun 09:38:04 64.0410 -8.6250 267° West 398 458 36,000  Level FlightAware ADS-B
Sun 09:38:42 64.0380 -8.7610 267° West 398 458 36,000  Level FlightAware ADS-B
Sun 09:39:18 64.0350 -8.8900 267° West 398 458 36,000  Level FlightAware ADS-B
Sun 09:39:54 64.0320 -9.0180 267° West 398 458 36,000  Level FlightAware ADS-B
Sun 09:40:32 64.0290 -9.1540 267° West 398 458 36,000  Level FlightAware ADS-B
Sun 09:41:09 64.0250 -9.2860 266° West 398 458 36,000  Level FlightAware ADS-B
Sun 09:41:45 64.0230 -9.4140 268° West 398 458 36,000  Level FlightAware ADS-B
Sun 09:42:21 64.0200 -9.5430 267° West 398 458 36,000  Level FlightAware ADS-B
Sun 09:42:57 64.0170 -9.6710 267° West 398 458 36,000  Level FlightAware ADS-B
Sun 09:43:36 63.9920 -10.1310 263° West 400 460 36,000  Level FlightAware ADS-B
Sun 09:44:10 63.9830 -10.2710 262° West 400 460 36,000  Level FlightAware ADS-B
Sun 09:44:46 63.9730 -10.4210 261° West 401 461 36,000  Level FlightAware ADS-B
Sun 09:45:22 63.9630 -10.5690 261° West 401 461 36,000  Level FlightAware ADS-B
Sun 09:45:57 63.9530 -10.7200 261° West 401 461 36,000  Level FlightAware ADS-B
Sun 09:46:30 63.9440 -10.8510 261° West 401 461 36,000  Level FlightAware ADS-B
Sun 09:47:06 63.9340 -11.0030 262° West 402 463 36,000  Level FlightAware ADS-B
Sun 09:47:39 63.9240 -11.1390 261° West 403 464 36,000  Level FlightAware ADS-B
Sun 09:48:15 63.9140 -11.2890 261° West 403 464 36,000  Level FlightAware ADS-B
Sun 09:48:52 63.9020 -11.4460 260° West 403 464 36,000  Level FlightAware ADS-B
Sun 09:49:28 63.8910 -11.5980 261° West 403 464 36,000  Level FlightAware ADS-B
Sun 09:49:57 63.8820 -11.7150 260° West 403 464 36,000  Level FlightAware ADS-B
Sun 09:50:37 63.8700 -11.8830 261° West 403 464 36,000  Level FlightAware ADS-B
Sun 09:51:13 63.8580 -12.0330 260° West 404 465 36,000  Level FlightAware ADS-B
Sun 09:51:45 63.8480 -12.1650 260° West 404 465 36,000  Level FlightAware ADS-B
Sun 09:52:23 63.8350 -12.3240 260° West 406 467 36,000  Level FlightAware ADS-B
Sun 09:52:57 63.8240 -12.4650 260° West 407 468 36,000  Level FlightAware ADS-B
Sun 09:53:27 63.8140 -12.5910 260° West 408 470 36,000  Level FlightAware ADS-B
Sun 09:54:05 63.8020 -12.7390 260° West 408 470 36,000  Level FlightAware ADS-B
Sun 09:54:41 63.7880 -12.9000 259° West 407 468 36,000  Level FlightAware ADS-B
Sun 09:55:17 63.7760 -13.0470 260° West 407 468 36,000  Level FlightAware ADS-B
Sun 09:55:53 63.7630 -13.1980 259° West 406 467 36,000  Level FlightAware ADS-B
Sun 09:56:25 63.7510 -13.3340 259° West 407 468 36,000  Level FlightAware ADS-B
Sun 09:56:57 63.7400 -13.4660 259° West 407 468 36,000  Level FlightAware ADS-B
Sun 09:57:39 63.7240 -13.6410 258° West 406 467 36,000  Level FlightAware ADS-B
Sun 09:58:11 63.7130 -13.7720 259° West 406 467 36,000  Level FlightAware ADS-B
Sun 09:58:47 63.6990 -13.9230 258° West 404 465 36,000  Level FlightAware ADS-B
Sun 09:59:23 63.6860 -14.0650 258° West 404 465 36,000  Level FlightAware ADS-B
Sun 09:59:59 63.6720 -14.2190 258° West 404 465 36,000  Level FlightAware ADS-B
Sun 10:00:30 63.6600 -14.3450 258° West 404 465 36,000  Level FlightAware ADS-B
Sun 10:01:03 63.6470 -14.4800 258° West 405 466 36,000  Level FlightAware ADS-B
Sun 10:01:42 63.6320 -14.6350 258° West 405 466 36,000  Level FlightAware ADS-B
Sun 10:02:16 63.6180 -14.7810 258° West 404 465 36,000  Level FlightAware ADS-B
Sun 10:02:54 63.6030 -14.9340 258° West 403 464 36,000  Level FlightAware ADS-B
Sun 10:03:28 63.5890 -15.0740 257° West 402 463 36,000  Level FlightAware ADS-B
Sun 10:04:00 63.5760 -15.2060 258° West 401 461 36,000  Level FlightAware ADS-B
Sun 10:04:39 63.5600 -15.3610 257° West 401 461 36,000  Level FlightAware ADS-B
Sun 10:05:11 63.5470 -15.4900 257° West 401 461 36,000  Level FlightAware ADS-B
Sun 10:05:47 63.5320 -15.6330 257° West 401 461 36,000  Level FlightAware ADS-B
Sun 10:06:21 63.5170 -15.7710 256° West 401 461 36,000  Level FlightAware ADS-B
Sun 10:06:58 63.5010 -15.9230 257° West 402 463 36,000  Level FlightAware ADS-B
Sun 10:07:29 63.4880 -16.0460 257° West 403 464 36,000  Level FlightAware ADS-B
Sun 10:08:07 63.4710 -16.2000 256° West 403 464 36,000  Level FlightAware ADS-B
Sun 10:08:42 63.4560 -16.3430 257° West 403 464 36,000  Level FlightAware ADS-B
Sun 10:09:16 63.4410 -16.4790 256° West 403 464 36,000  Level FlightAware ADS-B
Sun 10:09:50 63.4250 -16.6150 255° West 403 464 36,000  Level FlightAware ADS-B
Sun 10:10:26 63.4090 -16.7620 256° West 403 464 36,000  Level FlightAware ADS-B
Sun 10:11:02 63.3930 -16.9050 256° West 402 463 36,000  Level FlightAware ADS-B
Sun 10:11:30 63.3850 -16.9740 256° West 401 461 36,000  Level FlightAware ADS-B
Sun 10:12:08 63.3640 -17.1550 256° West 400 460 36,000  Level FlightAware ADS-B
Sun 10:12:44 63.3460 -17.3040 255° West 400 460 36,000  Level FlightAware ADS-B
Sun 10:13:16 63.3310 -17.4370 256° West 399 459 36,000  Level FlightAware ADS-B
Sun 10:13:52 63.3150 -17.5720 255° West 399 459 36,000  Level FlightAware ADS-B
Sun 10:14:24 63.2990 -17.6990 254° West 397 457 36,000  Level FlightAware ADS-B
Sun 10:15:01 63.2820 -17.8450 256° West 396 456 36,000  Level FlightAware ADS-B
Sun 10:15:37 63.2650 -17.9800 254° West 396 456 36,000  Level FlightAware ADS-B
Sun 10:16:12 63.2480 -18.1230 255° West 398 458 36,000  Level FlightAware ADS-B
Sun 10:16:48 63.2290 -18.2700 254° West 398 458 36,000  Level FlightAware ADS-B
Sun 10:17:24 63.2120 -18.4050 254° West 398 458 36,000  Level FlightAware ADS-B
Sun 10:17:56 63.1960 -18.5300 254° West 397 457 36,000  Level FlightAware ADS-B
Sun 10:18:34 63.1780 -18.6750 255° West 396 456 36,000  Level FlightAware ADS-B
Sun 10:19:09 63.1600 -18.8160 254° West 395 455 36,000  Level FlightAware ADS-B
Sun 10:19:42 63.1430 -18.9430 254° West 395 455 36,000  Level FlightAware ADS-B
Sun 10:20:18 63.1250 -19.0800 254° West 395 455 36,000  Level FlightAware ADS-B
Sun 10:20:54 63.1060 -19.2210 253° West 397 457 36,000  Level FlightAware ADS-B
Sun 10:21:26 63.0890 -19.3500 254° West 397 457 36,000  Level FlightAware ADS-B
Sun 10:22:02 63.0700 -19.4910 253° West 397 457 36,000  Level FlightAware ADS-B
Sun 10:22:36 63.0530 -19.6140 253° West 398 458 36,000  Level FlightAware ADS-B
Sun 10:23:13 63.0330 -19.7610 253° West 398 458 36,000  Level FlightAware ADS-B
Sun 10:23:46 63.0150 -19.8930 253° West 398 458 36,000  Level FlightAware ADS-B
Sun 10:24:22 62.9980 -20.0330 255° West 401 461 36,000  Level FlightAware ADS-B
Sun 10:24:56 62.9900 -20.1670 263° West 403 464 36,000  Level FlightAware ADS-B
Sun 10:25:34 62.9800 -20.3270 262° West 402 463 36,000  Level FlightAware ADS-B
Sun 10:26:07 62.9720 -20.4530 262° West 403 464 36,000  Level FlightAware ADS-B
Sun 10:26:39 62.9630 -20.5860 262° West 404 465 36,000  Level FlightAware ADS-B
Sun 10:27:20 62.9520 -20.7490 262° West 404 465 36,000  Level FlightAware ADS-B
Sun 10:27:54 62.9430 -20.8880 262° West 404 465 36,000  Level FlightAware ADS-B
Sun 10:28:27 62.9330 -21.0240 261° West 405 466 36,000  Level FlightAware ADS-B
Sun 10:29:04 62.9230 -21.1690 261° West 405 466 36,000  Level FlightAware ADS-B
Sun 10:29:40 62.9130 -21.3170 262° West 405 466 36,000  Level FlightAware ADS-B
Sun 10:30:10 62.9040 -21.4380 261° West 405 466 36,000  Level FlightAware ADS-B
Sun 10:30:50 62.8920 -21.6000 261° West 406 467 36,000  Level FlightAware ADS-B
Sun 10:31:22 62.8820 -21.7290 260° West 405 466 36,000  Level FlightAware ADS-B
Sun 10:32:00 62.8710 -21.8860 261° West 405 466 36,000  Level FlightAware ADS-B
Sun 10:32:32 62.8610 -22.0090 260° West 404 465 36,000  Level FlightAware ADS-B
Sun 10:33:07 62.8500 -22.1550 261° West 403 464 36,000  Level FlightAware ADS-B
Sun 10:33:40 62.8400 -22.2860 261° West 403 464 36,000  Level FlightAware ADS-B
Sun 10:34:18 62.8280 -22.4370 260° West 404 465 36,000  Level FlightAware ADS-B
Sun 10:34:52 62.8170 -22.5740 260° West 405 466 36,000  Level FlightAware ADS-B
Sun 10:35:28 62.8050 -22.7180 260° West 405 466 36,000 167 Level FlightAware ADS-B
Sun 10:36:04 62.7920 -22.8700 259° West 404 465 36,200 618 Climbing FlightAware ADS-B
Sun 10:36:36 62.7830 -22.9880 261° West 403 464 36,700 1,031 Climbing FlightAware ADS-B
Sun 10:37:08 62.7720 -23.1200 260° West 401 461 37,300 917 Climbing FlightAware ADS-B
Sun 10:37:48 62.7580 -23.2820 259° West 400 460 37,800 568 Climbing FlightAware ADS-B
Sun 10:38:22 62.7460 -23.4130 259° West 403 464 38,000 176 Climbing FlightAware ADS-B
Sun 10:38:56 62.7350 -23.5450 260° West 402 463 38,000  Level FlightAware ADS-B
Sun 10:39:30 62.7230 -23.6810 259° West 401 461 38,000  Level FlightAware ADS-B
Sun 10:40:08 62.7090 -23.8310 259° West 400 460 38,000  Level FlightAware ADS-B
Sun 10:40:41 62.6970 -23.9620 259° West 400 460 38,000  Level FlightAware ADS-B
Sun 10:41:17 62.6840 -24.1000 258° West 400 460 38,000  Level FlightAware ADS-B
Sun 10:41:54 62.6700 -24.2520 259° West 400 460 38,000  Level FlightAware ADS-B
Sun 10:42:27 62.6580 -24.3820 259° West 400 460 38,000  Level FlightAware ADS-B
Sun 10:43:02 62.6450 -24.5220 259° West 400 460 38,000  Level FlightAware ADS-B
Sun 10:43:38 62.6310 -24.6610 258° West 401 461 38,000  Level FlightAware ADS-B
Sun 10:44:14 62.6180 -24.8020 259° West 402 463 38,000  Level FlightAware ADS-B
Sun 10:44:44 62.6060 -24.9210 258° West 403 464 38,000  Level FlightAware ADS-B
Sun 10:45:24 62.5900 -25.0800 258° West 404 465 38,000  Level FlightAware ADS-B
Sun 10:45:58 62.5770 -25.2130 258° West 405 466 38,000  Level FlightAware ADS-B
Sun 10:46:32 62.5630 -25.3450 257° West 404 465 38,000  Level FlightAware ADS-B
Sun 10:47:08 62.5480 -25.4900 257° West 403 464 38,000  Level FlightAware ADS-B
Sun 10:47:41 62.5350 -25.6190 258° West 402 463 38,000  Level FlightAware ADS-B
Sun 10:48:14 62.5210 -25.7480 257° West 404 465 38,000  Level FlightAware ADS-B
Sun 10:48:54 62.5050 -25.9050 258° West 405 466 38,000  Level FlightAware ADS-B
Sun 10:49:26 62.4910 -26.0290 256° West 407 468 38,000  Level FlightAware ADS-B
Sun 10:50:01 62.4760 -26.1700 257° West 408 470 38,000  Level FlightAware ADS-B
Sun 10:50:39 62.4600 -26.3170 257° West 407 468 38,000  Level FlightAware ADS-B
Sun 10:51:12 62.4450 -26.4530 257° West 408 470 38,000  Level FlightAware ADS-B
Sun 10:51:46 62.4310 -26.5840 257° West 408 470 38,000  Level FlightAware ADS-B
Sun 10:52:22 62.4140 -26.7270 256° West 407 468 38,000  Level FlightAware ADS-B
Sun 10:52:58 62.3990 -26.8670 257° West 406 467 38,000  Level FlightAware ADS-B
Sun 10:53:34 62.3820 -27.0070 255° West 406 467 38,000  Level FlightAware ADS-B
Sun 10:54:07 62.3670 -27.1390 256° West 407 468 38,000  Level FlightAware ADS-B
Sun 10:54:43 62.3500 -27.2810 256° West 409 471 38,000  Level FlightAware ADS-B
Sun 10:55:16 62.3350 -27.4110 256° West 409 471 38,000  Level FlightAware ADS-B
Sun 10:55:53 62.3200 -27.5400 256° West 411 473 38,000  Level FlightAware ADS-B
Sun 10:56:26 62.3020 -27.6850 255° West 410 472 38,000  Level FlightAware ADS-B
Sun 10:57:04 62.2840 -27.8340 256° West 409 471 38,000  Level FlightAware ADS-B
Sun 10:57:38 62.2680 -27.9680 256° West 407 468 38,000  Level FlightAware ADS-B
Sun 10:58:26 62.2440 -28.1560 255° West 406 467 38,000  Level FlightAware ADS-B
Sun 10:59:00 62.2280 -28.2860 255° West 407 468 38,000  Level FlightAware ADS-B
Sun 10:59:36 62.2110 -28.4230 255° West 407 468 38,000  Level FlightAware ADS-B
Sun 11:00:10 62.1940 -28.5540 255° West 407 468 38,000  Level FlightAware ADS-B
Sun 11:00:42 62.1780 -28.6770 254° West 407 468 38,000  Level FlightAware ADS-B
Sun 11:01:21 62.1580 -28.8300 254° West 408 470 38,000  Level FlightAware ADS-B
Sun 11:01:56 62.1430 -28.9460 255° West 408 470 38,000  Level FlightAware ADS-B
Sun 11:02:31 62.1220 -29.1050 254° West 408 470 38,000  Level FlightAware ADS-B
Sun 11:03:07 62.1040 -29.2450 255° West 409 471 38,000  Level FlightAware ADS-B
Sun 11:03:41 62.0860 -29.3740 253° West 411 473 38,000  Level FlightAware ADS-B
Sun 11:04:14 62.0690 -29.5040 254° West 411 473 38,000  Level FlightAware ADS-B
Sun 11:04:47 62.0510 -29.6320 253° West 412 474 38,000  Level FlightAware ADS-B
Sun 11:05:17 62.0360 -29.7420 254° West 411 473 38,000  Level FlightAware ADS-B
Sun 11:06:11 62.0070 -29.9530 254° West 412 474 38,000  Level FlightAware ADS-B
Sun 11:06:58 61.9740 -30.1120 246° West 410 472 38,000  Level FlightAware ADS-B
Sun 11:07:34 61.9490 -30.2240 245° Southwest 410 472 38,000  Level FlightAware ADS-B
Sun 11:08:10 61.9250 -30.3360 246° West 410 472 38,000  Level FlightAware ADS-B
Sun 11:08:46 61.9000 -30.4480 245° Southwest 410 472 38,000  Level FlightAware ADS-B
Sun 11:09:20 61.8770 -30.5530 245° Southwest 410 472 38,000  Level FlightAware ADS-B
Sun 11:09:56 61.8520 -30.6650 245° Southwest 410 472 38,000  Level FlightAware ADS-B
Sun 11:10:34 61.8270 -30.7820 246° West 410 472 38,000  Level FlightAware ADS-B
Sun 11:11:10 61.8020 -30.8940 245° Southwest 410 472 38,000  Level FlightAware ADS-B
Sun 11:11:35 61.7850 -30.9710 245° Southwest 410 472 38,000  Level FlightAware ADS-B
Sun 11:12:26 61.7500 -31.1290 245° Southwest 410 472 38,000  Level FlightAware ADS-B
Sun 11:13:02 61.7260 -31.2400 246° West 410 472 38,000  Level FlightAware ADS-B
Sun 11:13:36 61.7020 -31.3450 244° Southwest 410 472 38,000  Level FlightAware ADS-B
Sun 11:14:12 61.6780 -31.4550 245° Southwest 410 472 38,000  Level FlightAware ADS-B
Sun 11:14:48 61.6530 -31.5660 245° Southwest 410 472 38,000  Level FlightAware ADS-B
Sun 11:15:24 61.6290 -31.6770 246° West 410 472 38,000  Level FlightAware ADS-B
Sun 11:16:01 61.6040 -31.7910 245° Southwest 410 472 38,000  Level FlightAware ADS-B
Sun 11:18:00 61.4318 -32.1903 242° Southwest  Level FlightAware Approximate
Sun 11:19:00 61.3709 -32.4223 241° Southwest  Level FlightAware Approximate
Sun 11:20:00 61.3096 -32.6533 241° Southwest  Level FlightAware Approximate
Sun 11:21:00 61.2479 -32.8834 241° Southwest  Level FlightAware Approximate
Sun 11:22:00 61.1858 -33.1126 241° Southwest  Level FlightAware Approximate
Sun 11:23:00 61.1234 -33.3409 241° Southwest  Level FlightAware Approximate
Sun 11:24:00 61.0605 -33.5684 240° Southwest  Level FlightAware Approximate
Sun 11:25:00 60.9973 -33.7949 240° Southwest  Level FlightAware Approximate
Sun 11:26:00 60.9337 -34.0205 240° Southwest  Level FlightAware Approximate
Sun 11:27:00 60.8697 -34.2452 240° Southwest  Level FlightAware Approximate
Sun 11:28:00 60.8053 -34.4690 240° Southwest  Level FlightAware Approximate
Sun 11:29:00 60.7406 -34.6919 239° Southwest  Level FlightAware Approximate
Sun 11:30:00 60.6755 -34.9139 239° Southwest  Level FlightAware Approximate
Sun 11:31:00 60.6100 -35.1350 239° Southwest  Level FlightAware Approximate
Sun 11:32:00 60.5442 -35.3552 239° Southwest  Level FlightAware Approximate
Sun 11:33:00 60.4780 -35.5745 239° Southwest  Level FlightAware Approximate
Sun 11:34:00 60.4115 -35.7929 238° Southwest  Level FlightAware Approximate
Sun 11:35:00 60.3446 -36.0104 238° Southwest  Level FlightAware Approximate
Sun 11:36:00 60.2773 -36.2270 238° Southwest  Level FlightAware Approximate
Sun 11:37:00 60.2097 -36.4427 238° Southwest  Level FlightAware Approximate
Sun 11:38:00 60.1417 -36.6576 238° Southwest  Level FlightAware Approximate
Sun 11:39:00 60.0734 -36.8716 237° Southwest  Level FlightAware Approximate
Sun 11:40:00 60.0048 -37.0846 237° Southwest  Level FlightAware Approximate
Sun 11:41:00 59.9358 -37.2968 237° Southwest  Level FlightAware Approximate
Sun 11:42:00 59.8665 -37.5081 237° Southwest  Level FlightAware Approximate
Sun 11:43:00 59.7968 -37.7185 237° Southwest  Level FlightAware Approximate
Sun 11:44:00 59.7268 -37.9281 237° Southwest  Level FlightAware Approximate
Sun 11:45:00 59.6565 -38.1367 236° Southwest  Level FlightAware Approximate
Sun 11:46:00 59.5858 -38.3445 236° Southwest  Level FlightAware Approximate
Sun 11:47:00 59.5148 -38.5514 236° Southwest  Level FlightAware Approximate
Sun 11:48:00 59.4435 -38.7575 236° Southwest  Level FlightAware Approximate
Sun 11:49:00 59.3719 -38.9627 236° Southwest  Level FlightAware Approximate
Sun 11:50:00 59.2999 -39.1670 235° Southwest  Level FlightAware Approximate
Sun 11:51:00 59.2276 -39.3704 235° Southwest  Level FlightAware Approximate
Sun 11:52:00 59.1551 -39.5730 235° Southwest  Level FlightAware Approximate
Sun 11:53:00 59.0822 -39.7747 235° Southwest  Level FlightAware Approximate
Sun 11:54:00 59.0089 -39.9756 235° Southwest  Level FlightAware Approximate
Sun 11:55:00 58.9531 -40.1955 245° Southwest  Level FlightAware Approximate
Sun 11:56:00 58.8992 -40.4176 245° Southwest  Level FlightAware Approximate
Sun 11:57:00 58.8450 -40.6390 245° Southwest  Level FlightAware Approximate
Sun 11:58:00 58.7905 -40.8597 245° Southwest  Level FlightAware Approximate
Sun 11:59:00 58.7355 -41.0797 244° Southwest  Level FlightAware Approximate
Sun 12:00:00 58.6802 -41.2990 244° Southwest  Level FlightAware Approximate
Sun 12:01:00 58.6245 -41.5176 244° Southwest  Level FlightAware Approximate
Sun 12:02:00 58.5684 -41.7355 244° Southwest  Level FlightAware Approximate
Sun 12:03:00 58.5120 -41.9527 244° Southwest  Level FlightAware Approximate
Sun 12:04:00 58.4552 -42.1692 243° Southwest  Level FlightAware Approximate
Sun 12:05:00 58.3980 -42.3850 243° Southwest  Level FlightAware Approximate
Sun 12:06:00 58.3405 -42.6001 243° Southwest  Level FlightAware Approximate
Sun 12:07:00 58.2826 -42.8145 243° Southwest  Level FlightAware Approximate
Sun 12:08:00 58.2243 -43.0282 243° Southwest  Level FlightAware Approximate
Sun 12:09:00 58.1657 -43.2412 243° Southwest  Level FlightAware Approximate
Sun 12:10:00 58.1068 -43.4535 242° Southwest  Level FlightAware Approximate
Sun 12:11:00 58.0475 -43.6651 242° Southwest  Level FlightAware Approximate
Sun 12:12:00 57.9878 -43.8759 242° Southwest  Level FlightAware Approximate
Sun 12:13:00 57.9278 -44.0861 242° Southwest  Level FlightAware Approximate
Sun 12:14:00 57.8675 -44.2956 242° Southwest  Level FlightAware Approximate
Sun 12:15:00 57.8068 -44.5044 241° Southwest  Level FlightAware Approximate
Sun 12:16:00 57.7457 -44.7124 241° Southwest  Level FlightAware Approximate
Sun 12:17:00 57.6844 -44.9198 241° Southwest  Level FlightAware Approximate
Sun 12:18:00 57.6227 -45.1265 241° Southwest  Level FlightAware Approximate
Sun 12:19:00 57.5606 -45.3324 241° Southwest  Level FlightAware Approximate
Sun 12:20:00 57.4982 -45.5377 241° Southwest  Level FlightAware Approximate
Sun 12:21:00 57.4355 -45.7422 240° Southwest  Level FlightAware Approximate
Sun 12:22:00 57.3725 -45.9461 240° Southwest  Level FlightAware Approximate
Sun 12:23:00 57.3091 -46.1493 240° Southwest  Level FlightAware Approximate
Sun 12:24:00 57.2454 -46.3517 240° Southwest  Level FlightAware Approximate
Sun 12:25:00 57.1814 -46.5535 240° Southwest  Level FlightAware Approximate
Sun 12:26:00 57.1170 -46.7545 240° Southwest  Level FlightAware Approximate
Sun 12:27:00 57.0523 -46.9548 239° Southwest  Level FlightAware Approximate
Sun 12:28:00 56.9874 -47.1545 239° Southwest  Level FlightAware Approximate
Sun 12:29:00 56.9221 -47.3535 239° Southwest  Level FlightAware Approximate
Sun 12:30:00 56.8564 -47.5517 239° Southwest  Level FlightAware Approximate
Sun 12:31:00 56.7905 -47.7493 239° Southwest  Level FlightAware Approximate
Sun 12:32:00 56.7243 -47.9462 239° Southwest  Level FlightAware Approximate
Sun 12:33:00 56.6577 -48.1423 238° Southwest  Level FlightAware Approximate
Sun 12:34:00 56.5909 -48.3378 238° Southwest  Level FlightAware Approximate
Sun 12:35:00 56.5237 -48.5326 238° Southwest  Level FlightAware Approximate
Sun 12:36:00 56.4562 -48.7267 238° Southwest  Level FlightAware Approximate
Sun 12:37:00 56.3885 -48.9201 238° Southwest  Level FlightAware Approximate
Sun 12:38:00 56.3204 -49.1129 238° Southwest  Level FlightAware Approximate
Sun 12:39:00 56.2520 -49.3049 237° Southwest  Level FlightAware Approximate
Sun 12:40:00 56.1834 -49.4962 237° Southwest  Level FlightAware Approximate
Sun 12:41:00 56.1144 -49.6869 237° Southwest  Level FlightAware Approximate
Sun 12:42:00 56.0452 -49.8769 237° Southwest  Level FlightAware Approximate
Sun 12:43:00 55.9663 -50.0514 220° Southwest  Level FlightAware Approximate
Sun 12:44:00 55.8698 -50.1978 220° Southwest  Level FlightAware Approximate
Sun 12:45:00 55.7732 -50.3435 220° Southwest  Level FlightAware Approximate
Sun 12:46:00 55.6764 -50.4885 220° Southwest  Level FlightAware Approximate
Sun 12:47:00 55.5794 -50.6327 220° Southwest  Level FlightAware Approximate
Sun 12:48:00 55.4823 -50.7762 220° Southwest  Level FlightAware Approximate
Sun 12:49:00 55.3850 -50.9190 220° Southwest  Level FlightAware Approximate
Sun 12:50:00 55.2875 -51.0612 220° Southwest  Level FlightAware Approximate
Sun 12:51:00 55.1898 -51.2026 220° Southwest  Level FlightAware Approximate
Sun 12:52:00 55.0920 -51.3433 219° Southwest  Level FlightAware Approximate
Sun 12:53:00 54.9941 -51.4834 219° Southwest  Level FlightAware Approximate
Sun 12:54:00 54.8960 -51.6227 219° Southwest  Level FlightAware Approximate
Sun 12:55:00 54.7977 -51.7614 219° Southwest  Level FlightAware Approximate
Sun 12:56:00 54.6992 -51.8994 219° Southwest  Level FlightAware Approximate
Sun 12:57:00 54.6007 -52.0368 219° Southwest  Level FlightAware Approximate
Sun 12:58:00 54.5019 -52.1734 219° Southwest  Level FlightAware Approximate
Sun 12:59:00 54.4030 -52.3094 219° Southwest  Level FlightAware Approximate
Sun 13:00:00 54.3039 -52.4448 219° Southwest  Level FlightAware Approximate
Sun 13:01:00 54.2047 -52.5795 218° Southwest  Level FlightAware Approximate
Sun 13:02:00 54.1054 -52.7136 218° Southwest  Level FlightAware Approximate
Sun 13:03:00 54.0059 -52.8470 218° Southwest  Level FlightAware Approximate
Sun 13:04:00 53.9062 -52.9798 218° Southwest  Level FlightAware Approximate
Sun 13:05:00 53.8064 -53.1119 218° Southwest  Level FlightAware Approximate
Sun 13:06:00 53.7065 -53.2435 218° Southwest  Level FlightAware Approximate
Sun 13:07:00 53.6064 -53.3744 218° Southwest  Level FlightAware Approximate
Sun 13:08:00 53.5062 -53.5047 218° Southwest  Level FlightAware Approximate
Sun 13:09:00 53.4058 -53.6343 218° Southwest  Level FlightAware Approximate
Sun 13:10:00 53.3053 -53.7634 218° Southwest  Level FlightAware Approximate
Sun 13:10:05 53.0167 -54.1833 242° Southwest 490 564 38,000  Level Gander Center
Sun 13:11:00 53.2046 -53.8918 217° Southwest  Level FlightAware Approximate
Sun 13:11:05 52.9667 -54.3833 248° West 490 564 38,000  Level Gander Center
Sun 13:12:00 53.1039 -54.0197 217° Southwest  Level FlightAware Approximate
Sun 13:12:05 52.9000 -54.6000 243° Southwest 470 541 38,000  Level Gander Center
Sun 13:13:00 53.0342 -54.1864 242° Southwest  Level FlightAware Approximate
Sun 13:13:05 52.8167 -54.7667 230° Southwest 480 552 38,000  Level Gander Center
Sun 13:14:00 52.9755 -54.3717 242° Southwest  Level FlightAware Approximate
Sun 13:14:05 52.7333 -54.9333 230° Southwest 480 552 38,000  Level Gander Center
Sun 13:15:00 52.9165 -54.5565 242° Southwest  Level FlightAware Approximate
Sun 13:15:05 52.6333 -55.1000 225° Southwest 480 552 38,000  Level Gander Center
Sun 13:16:05 52.5667 -55.2500 234° Southwest 490 564 38,000  Level Gander Center
Sun 13:17:05 52.4667 -55.4333 228° Southwest 480 552 38,000  Level Gander Center
Sun 13:18:05 52.3667 -55.5833 223° Southwest 490 564 38,000  Level Gander Center
Sun 13:19:05 52.2833 -55.7500 231° Southwest 480 552 38,000  Level Gander Center
Sun 13:20:05 52.1833 -55.9000 223° Southwest 480 552 38,000  Level Gander Center
Sun 13:21:05 52.1167 -56.0833 239° Southwest 480 552 38,000  Level Gander Center
Sun 13:22:05 52.0000 -56.2333 218° Southwest 480 552 38,000  Level Gander Center
Sun 13:23:05 51.9167 -56.4000 231° Southwest 480 552 38,000  Level Gander Center
Sun 13:24:05 51.8333 -56.5667 231° Southwest 490 564 38,000  Level Gander Center
Sun 13:25:05 51.7333 -56.7167 223° Southwest 480 552 38,000  Level Gander Center
Sun 13:26:05 51.6500 -56.8833 231° Southwest 480 552 38,000  Level Gander Center
Sun 13:27:05 51.5500 -57.0333 223° Southwest 480 552 38,000  Level Gander Center
Sun 13:28:05 51.4667 -57.1667 225° Southwest 480 552 38,000  Level Gander Center
Sun 13:29:05 51.3500 -57.3500 224° Southwest 490 564 38,000  Level Gander Center
Sun 13:30:05 51.2833 -57.5167 237° Southwest 480 552 38,000  Level Gander Center
Sun 13:31:05 51.1833 -57.6833 226° Southwest 490 564 38,000  Level Gander Center
Sun 13:36:33 50.6840 -58.5260 226° Southwest 486 559 38,000  Level FlightAware ADS-B
Sun 13:37:21 50.6120 -58.6400 225° Southwest 487 560 38,000  Level FlightAware ADS-B
Sun 13:37:53 50.5500 -58.7400 226° Southwest 489 563 38,000  Level FlightAware ADS-B
Sun 13:38:28 50.4970 -58.8250 226° Southwest 489 563 38,000  Level FlightAware ADS-B
Sun 13:39:03 50.4460 -58.9060 225° Southwest 488 562 38,000  Level FlightAware ADS-B
Sun 13:39:53 50.3660 -59.0320 225° Southwest 488 562 38,000  Level FlightAware ADS-B
Sun 13:40:23 50.3150 -59.1130 225° Southwest 490 564 38,000  Level FlightAware ADS-B
Sun 13:41:09 50.2480 -59.2180 225° Southwest 489 563 38,000  Level FlightAware ADS-B
Sun 13:41:43 50.1890 -59.3110 225° Southwest 490 564 38,000  Level FlightAware ADS-B
Sun 13:42:13 50.1370 -59.3920 225° Southwest 490 564 38,000  Level FlightAware ADS-B
Sun 13:42:58 50.0750 -59.4890 225° Southwest 489 563 38,000  Level FlightAware ADS-B
Sun 13:43:34 50.0260 -59.5650 225° Southwest 489 563 38,000  Level FlightAware ADS-B
Sun 13:44:10 49.9770 -59.6410 225° Southwest 489 563 38,000  Level FlightAware ADS-B
Sun 13:44:45 49.9290 -59.7150 225° Southwest 489 563 38,000  Level FlightAware ADS-B
Sun 13:45:19 49.8830 -59.7870 225° Southwest 489 563 38,000  Level FlightAware ADS-B
Sun 13:45:53 49.7910 -59.9240 224° Southwest 487 560 38,000  Level FlightAware ADS-B
Sun 13:46:33 49.7260 -60.0230 225° Southwest 488 562 38,000  Level FlightAware ADS-B
Sun 13:47:09 49.6640 -60.1170 224° Southwest 490 564 38,000  Level FlightAware ADS-B
Sun 13:47:59 49.5890 -60.2290 224° Southwest 491 565 38,000  Level FlightAware ADS-B
Sun 13:48:39 49.5260 -60.3240 224° Southwest 490 564 38,000  Level FlightAware ADS-B
Sun 13:49:16 49.4750 -60.4000 224° Southwest 490 564 38,000  Level FlightAware ADS-B
Sun 13:49:50 49.4270 -60.4700 223° Southwest 490 564 38,000  Level FlightAware ADS-B
Sun 13:50:25 49.3790 -60.5420 224° Southwest 490 564 38,000  Level FlightAware ADS-B
Sun 13:51:02 49.3280 -60.6180 224° Southwest 490 564 38,000  Level FlightAware ADS-B
Sun 13:51:38 49.2780 -60.6920 224° Southwest 490 564 38,000  Level FlightAware ADS-B
Sun 13:52:14 49.2280 -60.7660 224° Southwest 490 564 38,000  Level FlightAware ADS-B
Sun 13:52:51 49.1760 -60.8420 224° Southwest 490 564 38,000  Level FlightAware ADS-B
Sun 13:53:27 49.1270 -60.9150 224° Southwest 490 564 38,000  Level FlightAware ADS-B
Sun 13:54:03 49.0770 -60.9890 224° Southwest 490 564 38,000  Level FlightAware ADS-B
Sun 13:54:39 49.0270 -61.0630 224° Southwest 490 564 38,000  Level FlightAware ADS-B
Sun 13:55:15 48.9770 -61.1360 224° Southwest 490 564 38,000  Level FlightAware ADS-B
Sun 13:55:51 48.9270 -61.2090 224° Southwest 490 564 38,000  Level FlightAware ADS-B
Sun 13:56:27 48.8770 -61.2830 224° Southwest 490 564 38,000  Level FlightAware ADS-B
Sun 13:57:04 48.8260 -61.3580 224° Southwest 490 564 38,000  Level FlightAware ADS-B
Sun 13:57:40 48.7760 -61.4310 224° Southwest 490 564 38,000  Level FlightAware ADS-B
Sun 13:58:20 48.5500 -61.6833 224° Southwest 480 552 38,000  Level Moncton Center
Sun 13:59:05 48.4833 -61.7833 225° Southwest 490 564 38,000  Level Gander Center
Sun 14:00:05 48.3833 -61.9333 225° Southwest 480 552 38,000  Level Gander Center
Sun 14:01:05 48.3000 -62.0833 230° Southwest 490 564 38,000  Level Gander Center
Sun 14:02:05 48.2000 -62.2167 222° Southwest 490 564 38,000  Level Gander Center
Sun 14:03:05 48.1000 -62.3500 222° Southwest 490 564 38,000  Level Gander Center
Sun 14:04:05 47.9833 -62.4833 217° Southwest 490 564 38,000  Level Gander Center
Sun 14:05:05 47.8833 -62.6333 225° Southwest 490 564 38,000  Level Gander Center
Sun 14:06:05 47.7833 -62.7667 222° Southwest 480 552 38,000  Level Gander Center
Sun 14:07:05 47.6833 -62.9000 222° Southwest 480 552 38,000  Level Gander Center
Sun 14:08:05 47.6000 -63.0333 227° Southwest 480 552 38,000  Level Gander Center
Sun 14:09:05 47.4833 -63.1833 221° Southwest 480 552 38,000  Level Gander Center
Sun 14:10:05 47.4000 -63.3000 223° Southwest 480 552 38,000  Level Gander Center
Sun 14:11:05 47.2833 -63.4500 221° Southwest 480 552 38,000  Level Gander Center
Sun 14:12:05 47.1833 -63.5667 218° Southwest 480 552 38,000  Level Gander Center
Sun 14:13:05 47.0833 -63.6833 218° Southwest 490 564 38,000  Level Gander Center
Sun 14:14:05 46.9833 -63.8333 226° Southwest 480 552 38,000  Level Gander Center
Sun 14:15:05 46.9000 -63.9500 224° Southwest 480 552 38,000  Level Gander Center
Sun 14:16:05 46.8000 -64.0833 222° Southwest 480 552 38,000  Level Gander Center
Sun 14:21:57 46.2099 -64.8549 222° Southwest 473 544 38,000  Level FlightAware ADS-B
Sun 14:22:50 46.1301 -64.9545 221° Southwest 473 544 38,000  Level FlightAware ADS-B
Sun 14:23:30 46.0566 -65.0457 221° Southwest 473 544 38,000  Level FlightAware ADS-B
Sun 14:25:03 45.9027 -65.2358 221° Southwest 474 545 38,000  Level FlightAware ADS-B
Sun 14:25:40 45.8493 -65.3013 221° Southwest 475 547 38,000  Level FlightAware ADS-B
Sun 14:26:10 45.7916 -65.3720 221° Southwest 477 549 38,000  Level FlightAware ADS-B
Sun 14:26:51 45.7220 -65.4570 220° Southwest 475 547 38,000  Level FlightAware ADS-B
Sun 14:27:21 45.6820 -65.5060 221° Southwest 467 537 38,000  Level FlightAware ADS-B
Sun 14:27:30 45.6575 -65.5356 220° Southwest 472 543 38,000  Level FlightAware ADS-B
Sun 14:28:01 45.6055 -65.5987 220° Southwest 470 541 38,000  Level FlightAware ADS-B
Sun 14:28:33 45.5536 -65.6615 220° Southwest 469 540 38,000  Level FlightAware ADS-B
Sun 14:29:06 45.5070 -65.7180 220° Southwest 468 539 38,000  Level FlightAware ADS-B
Sun 14:29:11 45.5020 -65.7238 219° Southwest 468 539 38,000  Level FlightAware ADS-B
Sun 14:29:42 45.5463 -65.6704 40° Northeast 466 536 38,000  Level FlightAware ADS-B
Sun 14:30:13 45.3889 -65.8599 220° Southwest 465 535 38,000  Level FlightAware ADS-B
Sun 14:30:45 45.3362 -65.9231 220° Southwest 464 534 38,000  Level FlightAware ADS-B
Sun 14:31:37 45.2501 -66.0259 220° Southwest 463 533 38,000  Level FlightAware ADS-B
Sun 14:32:10 45.1985 -66.0873 220° Southwest 462 532 38,000  Level FlightAware ADS-B
Sun 14:32:44 45.1410 -66.1556 220° Southwest 462 532 38,000  Level FlightAware ADS-B
Sun 14:33:15 45.0932 -66.2122 220° Southwest 463 533 38,000  Level FlightAware ADS-B
Sun 14:33:54 45.0259 -66.2917 220° Southwest 464 534 38,000  Level FlightAware ADS-B
Sun 14:34:26 44.9742 -66.3525 220° Southwest 465 535 38,000  Level FlightAware ADS-B
Sun 14:35:05 44.9102 -66.4278 220° Southwest 466 536 38,000  Level FlightAware ADS-B
Sun 14:35:42 44.8560 -66.4910 220° Southwest 460 529 38,000  Level FlightAware ADS-B
Sun 14:35:44 44.8453 -66.5036 220° Southwest 466 536 38,000  Level FlightAware ADS-B
Sun 14:36:16 44.7917 -66.5662 220° Southwest 465 535 38,000  Level FlightAware ADS-B
Sun 14:37:27 44.6805 -66.6957 220° Southwest 463 533 38,000  Level FlightAware ADS-B
Sun 14:38:02 44.6260 -66.7590 220° Southwest 462 532 38,000  Level FlightAware ADS-B
Sun 14:38:09 44.6067 -66.7811 219° Southwest 462 532 38,000  Level FlightAware ADS-B
Sun 14:38:53 44.5328 -66.8663 219° Southwest 463 533 38,000  Level FlightAware ADS-B
Sun 14:39:24 44.4827 -66.9240 219° Southwest 463 533 38,000  Level FlightAware ADS-B
Sun 14:39:58 44.4256 -66.9899 219° Southwest 461 531 38,000  Level FlightAware ADS-B
Sun 14:40:29 44.3785 -67.0506 223° Southwest 463 533 38,000  Level FlightAware ADS-B
Sun 14:40:59 44.3325 -67.1149 225° Southwest 465 535 38,000  Level FlightAware ADS-B
Sun 14:41:29 44.2882 -67.1766 225° Southwest 465 535 38,000  Level FlightAware ADS-B
Sun 14:41:59 44.2637 -67.2103 225° Southwest 467 537 38,000  Level FlightAware ADS-B
Sun 14:42:29 44.2223 -67.2670 224° Southwest 467 537 38,000  Level FlightAware ADS-B
Sun 14:43:01 44.1519 -67.3629 224° Southwest 469 540 38,000  Level FlightAware ADS-B
Sun 14:43:41 44.0830 -67.4567 224° Southwest 472 543 38,000  Level FlightAware ADS-B
Sun 14:44:12 44.0348 -67.5221 224° Southwest 475 547 38,000  Level FlightAware ADS-B
Sun 14:44:54 43.9770 -67.6000 224° Southwest 475 547 38,000  Level FlightAware ADS-B
Sun 14:45:03 43.9576 -67.6266 225° Southwest 475 547 38,000  Level FlightAware ADS-B
Sun 14:45:33 43.9076 -67.6940 224° Southwest 475 547 38,000  Level FlightAware ADS-B
Sun 14:46:08 43.8535 -67.7667 224° Southwest 475 547 38,000  Level FlightAware ADS-B
Sun 14:46:38 43.8059 -67.8304 224° Southwest 475 547 38,000  Level FlightAware ADS-B
Sun 14:47:12 43.7505 -67.9044 224° Southwest 475 547 38,000  Level FlightAware ADS-B
Sun 14:47:53 43.6891 -67.9863 224° Southwest 474 545 38,000  Level FlightAware ADS-B
Sun 14:48:23 43.6425 -68.0483 224° Southwest 474 545 38,000  Level FlightAware ADS-B
Sun 14:48:54 43.5920 -68.1153 224° Southwest 475 547 38,000  Level FlightAware ADS-B
Sun 14:49:39 43.5270 -68.2010 224° Southwest 474 545 38,000  Level FlightAware ADS-B
Sun 14:49:43 43.5136 -68.2190 224° Southwest 475 547 38,000  Level FlightAware ADS-B
Sun 14:50:25 43.4464 -68.3076 224° Southwest 473 544 38,000  Level FlightAware ADS-B
Sun 14:51:11 43.3757 -68.4006 224° Southwest 468 539 38,000  Level FlightAware ADS-B
Sun 14:51:44 43.3271 -68.4642 224° Southwest 465 535 38,000  Level FlightAware ADS-B
Sun 14:52:16 43.2917 -68.5105 224° Southwest 464 534 38,000  Level FlightAware ADS-B
Sun 14:52:47 43.2283 -68.5931 224° Southwest 464 534 38,000  Level FlightAware ADS-B
Sun 14:53:21 43.1736 -68.6642 223° Southwest 465 535 38,000  Level FlightAware ADS-B
Sun 14:53:53 43.1299 -68.7207 223° Southwest 464 534 38,000  Level FlightAware ADS-B
Sun 14:54:23 43.0900 -68.7720 223° Southwest 464 534 38,000  Level FlightAware ADS-B
Sun 14:54:36 43.0571 -68.8149 224° Southwest 464 534 38,000  Level FlightAware ADS-B
Sun 14:55:07 43.0169 -68.8669 223° Southwest 465 535 38,000  Level FlightAware ADS-B
Sun 14:55:44 42.9550 -68.9464 223° Southwest 465 535 38,000  Level FlightAware ADS-B
Sun 14:56:25 42.8858 -69.0354 223° Southwest 464 534 38,000  Level FlightAware ADS-B
Sun 14:57:06 42.8280 -69.1094 223° Southwest 464 534 38,000  Level FlightAware ADS-B
Sun 14:57:38 42.7790 -69.1710 223° Southwest 464 534 38,000  Level FlightAware ADS-B
Sun 14:57:49 42.7617 -69.1939 224° Southwest 464 534 38,000  Level FlightAware ADS-B
Sun 14:58:26 42.6964 -69.2769 223° Southwest 462 532 38,000  Level FlightAware ADS-B
Sun 14:58:59 42.6466 -69.3401 223° Southwest 460 529 38,000  Level FlightAware ADS-B
Sun 14:59:29 42.5988 -69.4005 223° Southwest 459 528 38,000  Level FlightAware ADS-B
Sun 15:00:02 42.5549 -69.4561 223° Southwest 457 526 38,000  Level FlightAware ADS-B
Sun 15:00:32 42.5073 -69.5161 223° Southwest 456 525 38,000  Level FlightAware ADS-B
Sun 15:01:05 42.4598 -69.5758 223° Southwest 456 525 38,000  Level FlightAware ADS-B
Sun 15:01:35 42.4200 -69.6259 223° Southwest 456 525 38,000  Level FlightAware ADS-B
Sun 15:02:06 42.3631 -69.6971 223° Southwest 456 525 38,000  Level FlightAware ADS-B
Sun 15:02:58 42.2820 -69.7982 223° Southwest 456 525 38,000  Level FlightAware ADS-B
Sun 15:03:29 42.2360 -69.8560 223° Southwest 456 525 38,000  Level FlightAware ADS-B
Sun 15:03:37 42.2212 -69.8737 222° Southwest 456 525 38,000  Level FlightAware ADS-B
Sun 15:04:11 42.1697 -69.9376 223° Southwest 457 526 38,000  Level FlightAware ADS-B
Sun 15:04:41 42.1252 -69.9928 223° Southwest 454 522 38,000  Level FlightAware ADS-B
Sun 15:05:13 42.0733 -70.0570 223° Southwest 454 522 38,000  Level FlightAware ADS-B
Sun 15:05:46 42.0220 -70.1210 223° Southwest 452 520 38,000  Level FlightAware ADS-B
Sun 15:06:05 41.9920 -70.1572 222° Southwest 452 520 38,000  Level FlightAware ADS-B
Sun 15:06:43 41.9352 -70.2276 223° Southwest 453 521 38,000  Level FlightAware ADS-B
Sun 15:07:16 41.9038 -70.2718 226° Southwest 452 520 38,000  Level FlightAware ADS-B
Sun 15:07:48 41.8484 -70.3665 232° Southwest 452 520 38,000  Level FlightAware ADS-B
Sun 15:08:20 41.8118 -70.4309 233° Southwest 451 519 38,000  Level FlightAware ADS-B
Sun 15:09:14 41.7380 -70.5585 232° Southwest 453 521 38,000  Level FlightAware ADS-B
Sun 15:09:46 41.6971 -70.6285 232° Southwest 454 522 38,000  Level FlightAware ADS-B
Sun 15:10:21 41.6522 -70.7054 232° Southwest 450 518 38,000  Level FlightAware ADS-B
Sun 15:11:05 41.5970 -70.8000 232° Southwest 453 521 38,000  Level FlightAware ADS-B
Sun 15:11:40 41.5520 -70.8770 232° Southwest 453 521 38,000  Level FlightAware ADS-B
Sun 15:12:17 41.5040 -70.9580 232° Southwest 453 521 38,000  Level FlightAware ADS-B
Sun 15:12:48 41.4640 -71.0250 231° Southwest 453 521 38,000  Level FlightAware ADS-B
Sun 15:13:24 41.4170 -71.1050 232° Southwest 453 521 38,000  Level FlightAware ADS-B
Sun 15:14:01 41.3700 -71.1850 232° Southwest 453 521 38,000  Level FlightAware ADS-B
Sun 15:14:45 41.3070 -71.2810 229° Southwest 454 522 38,000  Level FlightAware ADS-B
Sun 15:15:16 41.2610 -71.3440 226° Southwest 456 525 38,000  Level FlightAware ADS-B
Sun 15:15:54 41.2060 -71.4200 226° Southwest 457 526 38,000  Level FlightAware ADS-B
Sun 15:16:27 41.1590 -71.4840 226° Southwest 458 527 38,000  Level FlightAware ADS-B
Sun 15:16:37 41.1466 -71.5012 226° Southwest 459 528 38,000  Level FlightAware ADS-B (KSNC)
Sun 15:17:15 41.1019 -71.5625 226° Southwest 458 527 38,000  Level FlightAware ADS-B (KSNC)
Sun 15:17:46 41.0505 -71.6330 226° Southwest 458 527 38,000  Level FlightAware ADS-B (KSNC)
Sun 15:18:47 40.9724 -71.7395 226° Southwest 458 527 38,000  Level FlightAware ADS-B (KSNC)
Sun 15:19:21 40.9010 -71.8360 226° Southwest 458 527 38,000  Level FlightAware ADS-B
Sun 15:19:58 40.8480 -71.9081 226° Southwest 458 527 38,000  Level FlightAware ADS-B (KSNC)
Sun 15:20:34 40.7950 -71.9800 226° Southwest 458 527 38,000  Level FlightAware ADS-B
Sun 15:21:04 40.7769 -72.0043 225° Southwest 458 527 38,000  Level FlightAware ADS-B (KSNC)
Sun 15:21:43 40.6913 -72.1196 226° Southwest 458 527 38,000  Level FlightAware ADS-B (KSNC)
Sun 15:22:18 40.6400 -72.1880 225° Southwest 457 526 38,000  Level FlightAware ADS-B
Sun 15:22:25 40.6333 -72.1974 227° Southwest 457 526 38,000  Level FlightAware ADS-B (KSNC)
Sun 15:22:59 40.5783 -72.2711 225° Southwest 457 526 38,000  Level FlightAware ADS-B (KSNC)
Sun 15:23:30 40.5350 -72.3280 225° Southwest 457 526 38,000  Level FlightAware ADS-B
Sun 15:23:36 40.5291 -72.3367 228° Southwest 458 527 38,000  Level FlightAware ADS-B (KSNC)
Sun 15:24:06 40.4788 -72.4035 225° Southwest 459 528 38,000  Level FlightAware ADS-B (KSNC)
Sun 15:24:42 40.4288 -72.4700 225° Southwest 459 528 38,000  Level FlightAware ADS-B (KSNC)
Sun 15:25:13 40.3797 -72.5351 225° Southwest 458 527 38,000  Level FlightAware ADS-B (KSNC)
Sun 15:25:48 40.3300 -72.6010 225° Southwest 456 525 38,000  Level FlightAware ADS-B
Sun 15:26:02 40.3074 -72.6306 225° Southwest 457 526 38,000  Level FlightAware ADS-B (KSNC)
Sun 15:26:44 40.2445 -72.7137 225° Southwest 457 526 38,000  Level FlightAware ADS-B (KSNC)
Sun 15:27:28 40.1797 -72.7989 225° Southwest 461 531 38,000  Level FlightAware ADS-B (KSNC)
Sun 15:27:58 40.1349 -72.8577 225° Southwest 462 532 38,000  Level FlightAware ADS-B (KSNC)
Sun 15:28:38 40.0762 -72.9346 225° Southwest 462 532 38,000  Level FlightAware ADS-B (KSNC)
Sun 15:29:18 40.0120 -73.0180 225° Southwest 463 533 38,000  Level FlightAware ADS-B
Sun 15:29:28 39.9988 -73.0355 225° Southwest 464 534 38,000  Level FlightAware ADS-B (KSNC)
Sun 15:30:17 39.9275 -73.1282 225° Southwest 465 535 38,000  Level FlightAware ADS-B (KSNC)
Sun 15:31:02 39.8580 -73.2190 225° Southwest 465 535 38,000  Level FlightAware ADS-B
Sun 15:31:36 39.8050 -73.2870 225° Southwest 465 535 38,000  Level FlightAware ADS-B
Sun 15:31:55 39.7750 -73.3256 225° Southwest 467 537 38,000  Level FlightAware ADS-B (KSNC)
Sun 15:32:44 39.6997 -73.4225 225° Southwest 469 540 38,000  Level FlightAware ADS-B (KSNC)
Sun 15:33:21 39.6460 -73.4920 225° Southwest 468 539 38,000  Level FlightAware ADS-B
Sun 15:33:59 39.5880 -73.5660 225° Southwest 470 541 38,000  Level FlightAware ADS-B
Sun 15:34:29 39.5390 -73.6280 224° Southwest 472 543 38,000  Level FlightAware ADS-B
Sun 15:35:08 39.4740 -73.7030 222° Southwest 478 550 38,000  Level FlightAware ADS-B
Sun 15:35:44 39.4090 -73.7590 214° Southwest 480 552 38,000  Level FlightAware ADS-B
Sun 15:36:18 39.3470 -73.8140 214° Southwest 482 555 38,000  Level FlightAware ADS-B
Sun 15:36:54 39.2800 -73.8730 214° Southwest 484 557 38,000  Level FlightAware ADS-B
Sun 15:37:26 39.2190 -73.9260 214° Southwest 484 557 38,000  Level FlightAware ADS-B
Sun 15:38:03 39.1520 -73.9850 214° Southwest 486 559 38,000  Level FlightAware ADS-B
Sun 15:38:36 39.0900 -74.0400 215° Southwest 487 560 38,000  Level FlightAware ADS-B
Sun 15:39:18 39.0150 -74.1050 214° Southwest 487 560 38,000  Level FlightAware ADS-B
Sun 15:39:52 38.9490 -74.1620 214° Southwest 486 559 38,000  Level FlightAware ADS-B
Sun 15:40:32 38.8730 -74.2280 214° Southwest 486 559 38,000  Level FlightAware ADS-B
Sun 15:41:01 38.8210 -74.2730 214° Southwest 489 563 38,000  Level FlightAware ADS-B
Sun 15:41:36 38.7540 -74.3310 214° Southwest 484 557 38,000  Level FlightAware ADS-B
Sun 15:42:09 38.6920 -74.3840 214° Southwest 486 559 38,000  Level FlightAware ADS-B
Sun 15:42:49 38.6170 -74.4490 214° Southwest 487 560 38,000  Level FlightAware ADS-B
Sun 15:43:24 38.5500 -74.5070 214° Southwest 488 562 38,000  Level FlightAware ADS-B
Sun 15:43:59 38.4830 -74.5640 214° Southwest 489 563 38,000  Level FlightAware ADS-B
Sun 15:44:36 38.4130 -74.6250 214° Southwest 490 564 38,000  Level FlightAware ADS-B
Sun 15:45:11 38.3460 -74.6810 213° Southwest 491 565 38,000  Level FlightAware ADS-B
Sun 15:45:44 38.2830 -74.7350 214° Southwest 499 574 38,000  Level FlightAware ADS-B
Sun 15:46:14 38.2270 -74.7820 213° Southwest 502 578 38,000  Level FlightAware ADS-B
Sun 15:46:52 38.1620 -74.8370 214° Southwest 505 581 38,000  Level FlightAware ADS-B
Sun 15:47:29 38.0810 -74.9060 214° Southwest 507 583 38,000  Level FlightAware ADS-B
Sun 15:48:05 38.0120 -74.9640 214° Southwest 507 583 38,000  Level FlightAware ADS-B
Sun 15:48:45 37.9350 -75.0290 214° Southwest 507 583 38,000  Level FlightAware ADS-B
Sun 15:49:22 37.8600 -75.0910 213° Southwest 506 582 38,000  Level FlightAware ADS-B
Sun 15:49:57 37.7960 -75.1450 214° Southwest 502 578 38,000  Level FlightAware ADS-B
Sun 15:50:27 37.7320 -75.1990 214° Southwest 504 580 38,000  Level FlightAware ADS-B
Sun 15:51:07 37.6530 -75.2650 213° Southwest 505 581 38,000  Level FlightAware ADS-B
Sun 15:51:42 37.5880 -75.3190 213° Southwest 505 581 38,000  Level FlightAware ADS-B
Sun 15:52:21 37.5080 -75.3850 213° Southwest 505 581 38,000  Level FlightAware ADS-B
Sun 15:52:56 37.4370 -75.4440 213° Southwest 507 583 38,000  Level FlightAware ADS-B
Sun 15:53:35 37.3680 -75.5010 213° Southwest 508 585 38,000  Level FlightAware ADS-B
Sun 15:54:05 37.3050 -75.5530 213° Southwest 508 585 38,000  Level FlightAware ADS-B
Sun 15:54:44 37.2230 -75.6200 213° Southwest 515 593 38,000  Level FlightAware ADS-B
Sun 15:55:22 37.1470 -75.6830 213° Southwest 506 582 38,000  Level FlightAware ADS-B
Sun 15:55:57 37.0820 -75.7360 213° Southwest 504 580 38,000  Level FlightAware ADS-B
Sun 15:56:40 37.0010 -75.8010 213° Southwest 504 580 38,000  Level FlightAware ADS-B
Sun 15:57:16 36.9220 -75.8660 213° Southwest 503 579 38,000  Level FlightAware ADS-B
Sun 15:57:51 36.8520 -75.9220 213° Southwest 502 578 38,000  Level FlightAware ADS-B
Sun 15:58:26 36.7840 -75.9780 213° Southwest 503 579 38,000  Level FlightAware ADS-B
Sun 15:59:01 36.7220 -76.0280 213° Southwest 503 579 38,000  Level FlightAware ADS-B
Sun 15:59:40 36.6370 -76.0960 213° Southwest 502 578 38,000  Level FlightAware ADS-B
Sun 16:00:21 36.5710 -76.1500 213° Southwest 502 578 38,000  Level FlightAware ADS-B
Sun 16:00:53 36.5000 -76.2070 213° Southwest 502 578 38,000  Level FlightAware ADS-B
Sun 16:01:29 36.4270 -76.2650 213° Southwest 502 578 38,000  Level FlightAware ADS-B
Sun 16:02:11 36.3380 -76.3360 213° Southwest 516 594 38,000  Level FlightAware ADS-B
Sun 16:02:53 36.2600 -76.3980 213° Southwest 518 596 38,000  Level FlightAware ADS-B
Sun 16:03:23 36.1990 -76.4470 213° Southwest 520 598 38,000  Level FlightAware ADS-B
Sun 16:04:01 36.1190 -76.5100 212° Southwest 515 593 38,000  Level FlightAware ADS-B
Sun 16:04:36 36.0460 -76.5680 213° Southwest 515 593 38,000  Level FlightAware ADS-B
Sun 16:05:11 35.9800 -76.6200 213° Southwest 514 592 38,000  Level FlightAware ADS-B
Sun 16:06:01 35.8830 -76.6970 213° Southwest 519 597 38,000  Level FlightAware ADS-B
Sun 16:06:40 35.8150 -76.7490 212° Southwest 519 597 38,000  Level FlightAware ADS-B
Sun 16:07:18 35.7490 -76.8000 212° Southwest 519 597 38,000  Level FlightAware ADS-B
Sun 16:07:54 35.6870 -76.8480 212° Southwest 519 597 38,000  Level FlightAware ADS-B
Sun 16:08:30 35.6250 -76.8960 212° Southwest 519 597 38,000  Level FlightAware ADS-B
Sun 16:09:06 35.5620 -76.9430 211° Southwest 519 597 38,000  Level FlightAware ADS-B
Sun 16:11:28 35.2140 -77.2180 213° Southwest 512 589 38,000  Level FlightAware ADS-B
Sun 16:12:09 35.1350 -77.2780 212° Southwest 513 590 38,000  Level FlightAware ADS-B
Sun 16:12:51 35.0510 -77.3430 212° Southwest 514 592 38,000  Level FlightAware ADS-B
Sun 16:13:26 34.9820 -77.3960 212° Southwest 514 592 38,000  Level FlightAware ADS-B
Sun 16:14:01 34.9100 -77.4510 212° Southwest 514 592 38,000  Level FlightAware ADS-B
Sun 16:14:35 34.8420 -77.5030 212° Southwest 513 590 38,000  Level FlightAware ADS-B
Sun 16:15:09 34.7680 -77.5590 212° Southwest 513 590 38,000  Level FlightAware ADS-B
Sun 16:15:58 34.7240 -77.5930 212° Southwest 512 589 38,000  Level FlightAware ADS-B
Sun 16:16:33 34.6510 -77.6490 212° Southwest 511 588 38,000  Level FlightAware ADS-B
Sun 16:17:08 34.5760 -77.7060 212° Southwest 510 587 38,000  Level FlightAware ADS-B
Sun 16:17:48 34.4880 -77.7720 212° Southwest 508 585 38,000  Level FlightAware ADS-B
Sun 16:18:18 34.4340 -77.8120 211° Southwest 509 586 38,000  Level FlightAware ADS-B
Sun 16:18:53 34.3600 -77.8550 206° Southwest 514 592 38,000  Level FlightAware ADS-B
Sun 16:19:33 34.2610 -77.8960 199° South 520 598 38,000  Level FlightAware ADS-B
Sun 16:20:04 34.1860 -77.9190 194° South 522 601 38,000  Level FlightAware ADS-B
Sun 16:20:38 34.1090 -77.9440 195° South 521 600 38,000  Level FlightAware ADS-B
Sun 16:21:18 34.0170 -77.9720 194° South 522 601 38,000  Level FlightAware ADS-B
Sun 16:21:48 33.9400 -77.9940 193° South 522 601 38,000  Level FlightAware ADS-B
Sun 16:22:28 33.8370 -78.0240 194° South 522 601 38,000  Level FlightAware ADS-B
Sun 16:22:58 33.7750 -78.0410 193° South 523 602 38,000  Level FlightAware ADS-B
Sun 16:23:38 33.6720 -78.0710 194° South 523 602 38,000  Level FlightAware ADS-B
Sun 16:24:08 33.6030 -78.0910 194° South 523 602 38,000  Level FlightAware ADS-B
Sun 16:24:43 33.5210 -78.1140 193° South 523 602 38,000  Level FlightAware ADS-B
Sun 16:25:23 33.4270 -78.1410 193° South 523 602 38,000  Level FlightAware ADS-B
Sun 16:25:53 33.3580 -78.1610 194° South 522 601 38,000  Level FlightAware ADS-B
Sun 16:26:28 33.2750 -78.1850 194° South 523 602 38,000  Level FlightAware ADS-B
Sun 16:27:03 33.2060 -78.2040 193° South 522 601 38,000  Level FlightAware ADS-B
Sun 16:27:43 33.1110 -78.2310 193° South 521 600 38,000  Level FlightAware ADS-B
Sun 16:28:13 33.0360 -78.2520 193° South 520 598 38,000  Level FlightAware ADS-B
Sun 16:28:48 32.9570 -78.2740 193° South 520 598 38,000  Level FlightAware ADS-B
Sun 16:29:23 32.8680 -78.3000 194° South 520 598 38,000  Level FlightAware ADS-B
Sun 16:30:03 32.7800 -78.3240 193° South 521 600 38,000  Level FlightAware ADS-B
Sun 16:30:33 32.7160 -78.3420 193° South 520 598 38,000  Level FlightAware ADS-B
Sun 16:31:11 32.5800 -78.3800 193° South 520 598 38,000  Level FlightAware ADS-B
Sun 16:31:46 32.4960 -78.4040 194° South 520 598 38,000  Level FlightAware ADS-B
Sun 16:32:16 32.4270 -78.4230 193° South 520 598 38,000  Level FlightAware ADS-B
Sun 16:32:51 32.3450 -78.4470 194° South 518 596 38,000  Level FlightAware ADS-B
Sun 16:33:31 32.2520 -78.4740 194° South 517 595 38,000  Level FlightAware ADS-B
Sun 16:34:06 32.1790 -78.4950 194° South 517 595 38,000  Level FlightAware ADS-B
Sun 16:35:02 32.0540 -78.5310 194° South 518 596 38,000  Level FlightAware ADS-B
Sun 16:35:38 31.9830 -78.5500 193° South 518 596 38,000  Level FlightAware ADS-B
Sun 16:36:14 31.9110 -78.5700 193° South 518 596 38,000  Level FlightAware ADS-B
Sun 16:36:52 31.8360 -78.5900 193° South 518 596 38,000  Level FlightAware ADS-B
Sun 16:37:45 31.6710 -78.6410 195° South 521 600 38,000  Level FlightAware ADS-B
Sun 16:38:23 31.5950 -78.6620 193° South 521 600 38,000  Level FlightAware ADS-B
Sun 16:38:59 31.5230 -78.6810 193° South 521 600 38,000  Level FlightAware ADS-B
Sun 16:39:33 31.4550 -78.6990 193° South 521 600 38,000  Level FlightAware ADS-B
Sun 16:40:11 31.3790 -78.7200 193° South 521 600 38,000  Level FlightAware ADS-B
Sun 16:40:45 31.3120 -78.7380 193° South 521 600 38,000  Level FlightAware ADS-B
Sun 16:41:21 31.2400 -78.7580 193° South 521 600 38,000  Level FlightAware ADS-B
Sun 16:41:58 31.1660 -78.7780 193° South 521 600 38,000  Level FlightAware ADS-B
Sun 16:42:34 31.0940 -78.7970 193° South 521 600 38,000  Level FlightAware ADS-B
Sun 16:43:13 30.8910 -78.8640 196° South 521 600 38,000  Level FlightAware ADS-B
Sun 16:43:54 30.8080 -78.8860 193° South 521 600 38,000  Level FlightAware ADS-B
Sun 16:44:31 30.7340 -78.9060 193° South 521 600 38,000  Level FlightAware ADS-B
Sun 16:45:05 30.6660 -78.9240 193° South 521 600 38,000  Level FlightAware ADS-B
Sun 16:45:43 30.5900 -78.9450 193° South 521 600 38,000  Level FlightAware ADS-B
Sun 16:46:19 30.5180 -78.9640 193° South 521 600 38,000  Level FlightAware ADS-B
Sun 16:46:56 30.4440 -78.9840 193° South 521 600 38,000  Level FlightAware ADS-B
Sun 16:47:33 30.3700 -79.0030 192° South 521 600 38,000  Level FlightAware ADS-B
Sun 16:48:09 30.2980 -79.0230 193° South 521 600 38,000  Level FlightAware ADS-B
Sun 16:48:45 30.2270 -79.0420 193° South 521 600 38,000  Level FlightAware ADS-B
Sun 16:49:19 30.1590 -79.0600 193° South 521 600 38,000  Level FlightAware ADS-B
Sun 16:49:57 30.0830 -79.0800 193° South 521 600 38,000  Level FlightAware ADS-B
Sun 16:50:34 30.0090 -79.1000 193° South 521 600 38,000  Level FlightAware ADS-B
Sun 16:51:10 29.9370 -79.1190 193° South 521 600 38,000  Level FlightAware ADS-B
Sun 16:51:46 29.8650 -79.1380 193° South 521 600 38,000  Level FlightAware ADS-B
Sun 16:52:22 29.7930 -79.1570 193° South 521 600 38,000  Level FlightAware ADS-B
Sun 16:52:58 29.7220 -79.1760 193° South 521 600 38,000  Level FlightAware ADS-B
Sun 16:57:19 28.9910 -79.5680 205° Southwest 508 585 38,000  Level FlightAware ADS-B
Sun 16:58:09 28.8720 -79.6120 198° South 506 582 38,000  Level FlightAware ADS-B
Sun 16:58:40 28.8020 -79.6370 197° South 506 582 38,000  Level FlightAware ADS-B
Sun 16:59:19 28.7140 -79.6700 198° South 505 581 38,000  Level FlightAware ADS-B
Sun 16:59:54 28.6340 -79.7000 198° South 504 580 38,000  Level FlightAware ADS-B
Sun 17:00:35 28.5490 -79.7310 198° South 506 582 38,000  Level FlightAware ADS-B
Sun 17:01:15 28.4560 -79.7660 198° South 506 582 38,000  Level FlightAware ADS-B
Sun 17:01:54 28.3650 -79.7990 198° South 506 582 38,000  Level FlightAware ADS-B
Sun 17:02:30 28.2880 -79.8270 198° South 506 582 38,000  Level FlightAware ADS-B
Sun 17:02:59 28.2220 -79.8510 198° South 507 583 38,000  Level FlightAware ADS-B
Sun 17:03:36 28.1420 -79.8800 198° South 508 585 38,000  Level FlightAware ADS-B
Sun 17:04:14 28.0540 -79.9130 198° South 509 586 38,000  Level FlightAware ADS-B
Sun 17:04:45 27.9840 -79.9380 198° South 509 586 38,000  Level FlightAware ADS-B
Sun 17:05:24 27.8970 -79.9700 198° South 509 586 38,000  Level FlightAware ADS-B
Sun 17:05:54 27.8270 -79.9950 198° South 509 586 38,000  Level FlightAware ADS-B
Sun 17:06:29 27.7530 -80.0220 198° South 508 585 38,000  Level FlightAware ADS-B
Sun 17:07:10 27.6600 -80.0560 198° South 507 583 38,000  Level FlightAware ADS-B
Sun 17:07:39 27.5960 -80.0790 198° South 508 585 38,000  Level FlightAware ADS-B
Sun 17:08:15 27.5140 -80.1090 198° South 508 585 38,000  Level FlightAware ADS-B
Sun 17:08:54 27.4290 -80.1400 198° South 508 585 38,000  Level FlightAware ADS-B
Sun 17:09:25 27.3580 -80.1650 197° South 507 583 38,000  Level FlightAware ADS-B
Sun 17:09:59 27.2820 -80.1920 198° South 507 583 38,000  Level FlightAware ADS-B
Sun 17:10:45 27.1770 -80.2300 198° South 507 583 38,000  Level FlightAware ADS-B
Sun 17:11:27 27.0900 -80.2610 198° South 508 585 38,000  Level FlightAware ADS-B
Sun 17:12:00 27.0120 -80.2890 198° South 509 586 38,000  Level FlightAware ADS-B
Sun 17:12:34 26.9330 -80.3170 198° South 510 587 38,000  Level FlightAware ADS-B
Sun 17:13:22 26.8350 -80.3520 198° South 510 587 38,000  Level FlightAware ADS-B
Sun 17:13:51 26.7570 -80.3800 198° South 510 587 38,000  Level FlightAware ADS-B
Sun 17:14:27 26.6810 -80.4070 198° South 510 587 38,000  Level FlightAware ADS-B
Sun 17:15:02 26.6030 -80.4350 198° South 510 587 38,000  Level FlightAware ADS-B
Sun 17:15:38 26.5180 -80.4650 198° South 509 586 38,000  Level FlightAware ADS-B
Sun 17:16:15 26.4370 -80.4940 198° South 510 587 38,000  Level FlightAware ADS-B
Sun 17:16:49 26.3570 -80.5220 197° South 510 587 38,000  Level FlightAware ADS-B
Sun 17:17:24 26.2810 -80.5490 198° South 509 586 38,000  Level FlightAware ADS-B
Sun 17:17:56 26.2160 -80.5720 198° South 507 583 38,000  Level FlightAware ADS-B
Sun 17:18:34 26.1290 -80.6030 198° South 509 586 38,000  Level FlightAware ADS-B
Sun 17:19:09 26.0460 -80.6320 197° South 509 586 38,000  Level FlightAware ADS-B
Sun 17:19:43 25.9730 -80.6590 198° South 500 575 38,000  Level FlightAware ADS-B
Sun 17:19:58 25.9380 -80.6800 208° Southwest 503 579 38,000  Level FlightAware ADS-B
Sun 17:20:33 25.8760 -80.7370 220° Southwest 500 575 38,000  Level FlightAware ADS-B
Sun 17:21:13 25.8050 -80.8060 221° Southwest 495 570 38,000  Level FlightAware ADS-B
Sun 17:21:49 25.7470 -80.8630 222° Southwest 495 570 38,000  Level FlightAware ADS-B
Sun 17:22:23 25.6850 -80.9230 221° Southwest 496 571 38,000  Level FlightAware ADS-B
Sun 17:22:59 25.6220 -80.9840 221° Southwest 497 572 38,000  Level FlightAware ADS-B
Sun 17:23:33 25.5610 -81.0430 221° Southwest 496 571 38,000  Level FlightAware ADS-B
Sun 17:24:03 25.5080 -81.0930 220° Southwest 495 570 38,000  Level FlightAware ADS-B
Sun 17:24:43 25.4390 -81.1600 221° Southwest 495 570 38,000  Level FlightAware ADS-B
Sun 17:25:23 25.3680 -81.2270 220° Southwest 494 568 38,000  Level FlightAware ADS-B
Sun 17:25:55 25.3150 -81.2780 221° Southwest 494 568 38,000  Level FlightAware ADS-B
Sun 17:26:31 25.2500 -81.3410 221° Southwest 495 570 38,000 -237 Level FlightAware ADS-B
Sun 17:27:11 25.1800 -81.4080 221° Southwest 497 572 37,700 -720 Descending FlightAware ADS-B
Sun 17:27:46 25.1180 -81.4670 221° Southwest 495 570 37,100 -1,200 Descending FlightAware ADS-B
Sun 17:28:21 25.0570 -81.5250 221° Southwest 495 570 36,300 -1,543 Descending FlightAware ADS-B
Sun 17:28:56 24.9960 -81.5840 221° Southwest 495 570 35,300 -1,971 Descending FlightAware ADS-B
Sun 17:29:31 24.9330 -81.6430 220° Southwest 491 565 34,000 -1,886 Descending FlightAware ADS-B
Sun 17:30:06 24.8740 -81.6990 221° Southwest 488 562 33,100 -1,286 Descending FlightAware ADS-B
Sun 17:30:41 24.8130 -81.7570 221° Southwest 484 557 32,500 -943 Descending FlightAware ADS-B
Sun 17:31:16 24.7560 -81.8110 221° Southwest 470 541 32,000 -973 Descending FlightAware ADS-B
Sun 17:31:55 24.6900 -81.8730 220° Southwest 470 541 31,300 -1,029 Descending FlightAware ADS-B
Sun 17:32:26 24.6400 -81.9200 221° Southwest 465 535 30,800 -985 Descending FlightAware ADS-B
Sun 17:33:02 24.5820 -81.9740 220° Southwest 455 524 30,200 -1,083 Descending FlightAware ADS-B
Sun 17:33:38 24.5240 -82.0290 221° Southwest 449 517 29,500 -1,268 Descending FlightAware ADS-B
Sun 17:34:13 24.4700 -82.0800 221° Southwest 443 510 28,700 -1,343 Descending FlightAware ADS-B
Sun 17:34:45 24.4180 -82.1290 221° Southwest 425 489 28,000 -1,254 Descending FlightAware ADS-B
Sun 17:35:20 24.3650 -82.1780 220° Southwest 420 483 27,300 -1,286 Descending FlightAware ADS-B
Sun 17:35:55 24.3160 -82.2240 221° Southwest 408 470 26,500 -1,286 Descending FlightAware ADS-B
Sun 17:36:30 24.2670 -82.2700 221° Southwest 404 465 25,800 -789 Descending FlightAware ADS-B
Sun 17:37:11 24.2120 -82.3220 221° Southwest 404 465 25,500 -240 Descending FlightAware ADS-B
Sun 17:37:45 24.1710 -82.3610 221° Southwest 404 465 25,500 -1,326 Level FlightAware ADS-B
Sun 17:38:37 24.0870 -82.4370 220° Southwest 403 464 23,600 -1,326 Descending FlightAware ADS-B
Sun 17:39:11 24.0460 -82.4750 220° Southwest 403 464 23,600  Level FlightAware ADS-B
Sun 17:39:57 23.9900 -82.5260 220° Southwest 403 464 23,600 -3,541 Level FlightAware ADS-B
Sun 17:40:12 23.9410 -82.5250 179° South 531 611 20,000 -14,400 Descending FlightAware ADS-B
Sun 17:46:00 23.2291 -82.4179 175° South  Level FlightAware Approximate
Sun 17:47:00 23.1057 -82.4111 170° South  Level FlightAware Approximate
Sun 17:48:00 22.9827 -82.4000 180° South  Level FlightAware Approximate
Sun 17:49:00 22.9667 -82.4000 180° South  Level FlightAware Approximate
Sun 17:50:00 22.9891 -82.4091 180° South  Level Estimated
Sun 17:51:00 22.9891 -82.4091 180° South  Level Estimated
Sun 17:52:00 22.9891 -82.4091 180° South  Level Estimated
Sun 17:53:00 22.9891 -82.4091 180° South  Level Estimated
Sun 17:54:00 22.9891 -82.4091 180° South  Level Estimated
Sun 17:55:00 22.9891 -82.4091 180° South  Level Estimated
Sun 17:56:00 22.9891 -82.4091 180° South  Level Estimated
Sun 17:57:00 22.9891 -82.4091 180° South  Level Estimated
Sun 17:58:00 22.9891 -82.4091 180° South  Level Estimated
Sun 17:59:00 22.9891 -82.4091 180° South  Level Estimated
Sun 18:00:00 22.9891 -82.4091 180° South  Level Estimated
Sun 18:01:00 22.9891 -82.4091 180° South  Level Estimated
Sun 18:02:00 22.9891 -82.4091 180° South  Level Estimated
Sun 18:03:00 22.9891 -82.4091 180° South  Level Estimated
Sun 18:04:00 22.9891 -82.4091 180° South  Level Estimated
Sun 18:05:00 22.9891 -82.4091 180° South  Level Estimated
Sun 18:06:00 22.9891 -82.4091 180° South  Level Estimated
Sun 18:07:00 22.9891 -82.4091 180° South  Level Estimated
Sun 18:08:00 22.9891 -82.4091 180° South  Level Estimated
Sun 18:09:00 22.9891 -82.4091 180° South  Level Estimated
Sun 18:10:00 22.9891 -82.4091 180° South  Level Estimated

Login

Don't have an account? Register now (free) for customized features, flight alerts, and more!